Observation data for Amarillo 7 South Southeast on 06/12/2019      Previous  Date       Current Mesonet Observations  Soil Data  Daily Summary Page  Observations in Plain Language
KAM1 120500Z 16007KT 18/15 A3006 RMK A01 T01820149  RH  081%=      5-min Rain = 0
KAM1 120501Z 16007KT 18/15 A3006 RMK A01 T01840150  RH  081%=      5-min Rain = 0
KAM1 120502Z 16007KT 18/15 A3007 RMK A01 T01840150  RH  080%=      5-min Rain = 0
KAM1 120503Z 16007KT 19/15 A3007 RMK A01 T01850151  RH  080%=      5-min Rain = 0
KAM1 120504Z 16007KT 19/15 A3007 RMK A01 T01860151  RH  080%=      5-min Rain = 0
KAM1 120505Z 16007KT 19/15 A3007 RMK A01 T01870151  RH  080%=      5-min Rain = 0
KAM1 120506Z 16006KT 19/15 A3007 RMK A01 T01870151  RH  079%=      5-min Rain = 0
KAM1 120507Z 16006KT 19/15 A3007 RMK A01 T01880151  RH  079%=      5-min Rain = 0
KAM1 120508Z 16005KT 19/15 A3007 RMK A01 T01890151  RH  078%=      5-min Rain = 0
KAM1 120509Z 16005KT 19/15 A3007 RMK A01 T01890151  RH  078%=      5-min Rain = 0
KAM1 120510Z 16005KT 19/15 A3007 RMK A01 T01890150  RH  078%=      5-min Rain = 0
KAM1 120511Z 16004KT 19/15 A3007 RMK A01 T01900150  RH  078%=      5-min Rain = 0
KAM1 120512Z 16003KT 19/15 A3007 RMK A01 T01890150  RH  078%=      5-min Rain = 0
KAM1 120513Z 16002KT 19/15 A3007 RMK A01 T01890150  RH  078%=      5-min Rain = 0
KAM1 120514Z 16000KT 19/15 A3007 RMK A01 T01890150  RH  078%=      5-min Rain = 0
KAM1 120515Z 00000KT 19/15 A3007 RMK A01 T01860146  RH  077%=      5-min Rain = 0
KAM1 120516Z 00003KT 18/14 A3007 RMK A01 T01800142  RH  079%=      5-min Rain = 0
KAM1 120517Z 01004KT 17/14 A3007 RMK A01 T01740142  RH  082%=      5-min Rain = 0
KAM1 120518Z 00005KT 17/14 A3007 RMK A01 T01700144  RH  085%=      5-min Rain = 0
KAM1 120519Z 00005KT 17/15 A3007 RMK A01 T01670147  RH  088%=      5-min Rain = 0
KAM1 120520Z 00005KT 17/15 A3007 RMK A01 T01660149  RH  089%=      5-min Rain = 0
KAM1 120521Z 00005KT 17/15 A3007 RMK A01 T01650150  RH  091%=      5-min Rain = 0
KAM1 120522Z 00006KT 16/15 A3007 RMK A01 T01640152  RH  092%=      5-min Rain = 0
KAM1 120523Z 00005KT 17/15 A3007 RMK A01 T01650152  RH  092%=      5-min Rain = 0
KAM1 120524Z 00005KT 17/15 A3007 RMK A01 T01650153  RH  092%=      5-min Rain = 0
KAM1 120525Z 36005KT 17/15 A3007 RMK A01 T01650154  RH  093%=      5-min Rain = 0
KAM1 120526Z 36003KT 17/15 A3007 RMK A01 T01660153  RH  092%=      5-min Rain = 0
KAM1 120527Z 01004KT 17/15 A3007 RMK A01 T01700154  RH  090%=      5-min Rain = 0
KAM1 120528Z 01003KT 17/15 A3007 RMK A01 T01710152  RH  088%=      5-min Rain = 0
KAM1 120529Z 28001KT 17/15 A3007 RMK A01 T01720153  RH  089%=      5-min Rain = 0
KAM1 120530Z 29000KT 17/15 A3007 RMK A01 T01740152  RH  087%=      5-min Rain = 0
KAM1 120531Z 32000KT 18/15 A3007 RMK A01 T01760152  RH  086%=      5-min Rain = 0
KAM1 120532Z 34000KT 18/15 A3007 RMK A01 T01800152  RH  083%=      5-min Rain = 0
KAM1 120533Z 03002KT 18/15 A3007 RMK A01 T01820152  RH  083%=      5-min Rain = 0
KAM1 120534Z 02001KT 19/15 A3008 RMK A01 T01850151  RH  081%=      5-min Rain = 0
KAM1 120535Z 02001KT 19/15 A3008 RMK A01 T01870150  RH  079%=      5-min Rain = 0
KAM1 120536Z 05001KT 19/15 A3008 RMK A01 T01900150  RH  078%=      5-min Rain = 0
KAM1 120537Z 15001KT 19/15 A3008 RMK A01 T01910149  RH  077%=      5-min Rain = 0
KAM1 120538Z 16000KT 19/15 A3008 RMK A01 T01910148  RH  076%=      5-min Rain = 0
KAM1 120539Z 00000KT 19/15 A3008 RMK A01 T01920147  RH  075%=      5-min Rain = 0
KAM1 120540Z 24000KT 20/15 A3008 RMK A01 T01950147  RH  074%=      5-min Rain = 0
KAM1 120541Z 19002KT 20/15 A3008 RMK A01 T01970147  RH  073%=      5-min Rain = 0
KAM1 120542Z 17004KT 20/15 A3008 RMK A01 T01990147  RH  072%=      5-min Rain = 0
KAM1 120543Z 16003KT 20/15 A3008 RMK A01 T02010147  RH  071%=      5-min Rain = 0
KAM1 120544Z 14002KT 20/15 A3008 RMK A01 T02020146  RH  070%=      5-min Rain = 0
KAM1 120545Z 11001KT 20/15 A3008 RMK A01 T02020147  RH  070%=      5-min Rain = 0
KAM1 120546Z 09002KT 20/15 A3008 RMK A01 T02020147  RH  071%=      5-min Rain = 0
KAM1 120547Z 07003KT 20/15 A3008 RMK A01 T02010148  RH  071%=      5-min Rain = 0
KAM1 120548Z 05004KT 20/15 A3008 RMK A01 T02000148  RH  072%=      5-min Rain = 0
KAM1 120549Z 05005KT 20/15 A3008 RMK A01 T01970147  RH  073%=      5-min Rain = 0
KAM1 120550Z 05005KT 19/15 A3008 RMK A01 T01940147  RH  074%=      5-min Rain = 0
KAM1 120551Z 03007KT 19/15 A3008 RMK A01 T01910148  RH  076%=      5-min Rain = 0
KAM1 120552Z 03007KT 19/15 A3008 RMK A01 T01880148  RH  078%=      5-min Rain = 0
KAM1 120553Z 04008KT 19/15 A3009 RMK A01 T01860149  RH  079%=      5-min Rain = 0
KAM1 120554Z 04007KT 18/15 A3009 RMK A01 T01830150  RH  081%=      5-min Rain = 0
KAM1 120555Z 03008KT 18/15 A3009 RMK A01 T01800151  RH  083%=      5-min Rain = 0
KAM1 120556Z 03008KT 18/15 A3009 RMK A01 T01780152  RH  085%=      5-min Rain = 0
KAM1 120557Z 02009KT 18/15 A3009 RMK A01 T01760152  RH  086%=      5-min Rain = 0
KAM1 120558Z 02010KT 18/15 A3009 RMK A01 T01760153  RH  086%=      5-min Rain = 0
KAM1 120559Z 00013KT 18/15 A301 RMK A01 T01750153  RH  087%=      5-min Rain = 0
KAM1 120600Z 01012KT 18/16 A301 RMK A01 T01750155  RH  088%=      5-min Rain = 0
KAM1 120601Z 01013KT 18/16 A301 RMK A01 T01760156  RH  088%=      5-min Rain = 0
KAM1 120602Z 01012KT 18/16 A301 RMK A01 T01780157  RH  087%=      5-min Rain = 0
KAM1 120603Z 01011KT 18/16 A301 RMK A01 T01780157  RH  087%=      5-min Rain = 0
KAM1 120604Z 00014KT 18/16 A301 RMK A01 T01780157  RH  088%=      5-min Rain = 0
KAM1 120605Z 01011KT 18/16 A301 RMK A01 T01790157  RH  087%=      5-min Rain = 0
KAM1 120606Z 03010KT 18/16 A301 RMK A01 T01800157  RH  087%=      5-min Rain = 0
KAM1 120607Z 03007KT 18/16 A301 RMK A01 T01800157  RH  087%=      5-min Rain = 0
KAM1 120608Z 03007KT 18/16 A301 RMK A01 T01800158  RH  087%=      5-min Rain = 0
KAM1 120609Z 01011KT 18/16 A301 RMK A01 T01800158  RH  087%=      5-min Rain = 0
KAM1 120610Z 01012KT 18/16 A301 RMK A01 T01810158  RH  086%=      5-min Rain = 0
KAM1 120611Z 01012KT 18/16 A301 RMK A01 T01820158  RH  086%=      5-min Rain = 0
KAM1 120612Z 01011KT 18/16 A3011 RMK A01 T01830158  RH  085%=      5-min Rain = 0
KAM1 120613Z 00009KT 18/16 A3011 RMK A01 T01830158  RH  085%=      5-min Rain = 0
KAM1 120614Z 01010KT 18/16 A3011 RMK A01 T01830158  RH  085%=      5-min Rain = 0
KAM1 120615Z 01010KT 18/16 A301 RMK A01 T01830158  RH  085%=      5-min Rain = 0
KAM1 120616Z 01011KT 18/16 A3011 RMK A01 T01840158  RH  085%=      5-min Rain = 0
KAM1 120617Z 01011KT 19/16 A3011 RMK A01 T01850158  RH  084%=      5-min Rain = 0
KAM1 120618Z 01012KT 19/16 A3011 RMK A01 T01850158  RH  084%=      5-min Rain = 0
KAM1 120619Z 02011KT 19/16 A3011 RMK A01 T01860158  RH  084%=      5-min Rain = 0
KAM1 120620Z 02011KT 19/16 A3011 RMK A01 T01870158  RH  083%=      5-min Rain = 0
KAM1 120621Z 02011KT 19/16 A3011 RMK A01 T01870157  RH  083%=      5-min Rain = 0
KAM1 120622Z 02011KT 19/16 A3011 RMK A01 T01870158  RH  083%=      5-min Rain = 0
KAM1 120623Z 02010KT 19/16 A3011 RMK A01 T01870158  RH  083%=      5-min Rain = 0
KAM1 120624Z 01011KT 19/16 A3011 RMK A01 T01870157  RH  083%=      5-min Rain = 0
KAM1 120625Z 02012KT 19/16 A3011 RMK A01 T01880157  RH  082%=      5-min Rain = 0
KAM1 120626Z 02010KT 19/16 A3011 RMK A01 T01900157  RH  081%=      5-min Rain = 0
KAM1 120627Z 02010KT 19/16 A3011 RMK A01 T01900157  RH  081%=      5-min Rain = 0
KAM1 120628Z 02012KT 19/16 A3011 RMK A01 T01900157  RH  081%=      5-min Rain = 0
KAM1 120629Z 02011KT 19/16 A3011 RMK A01 T01900157  RH  081%=      5-min Rain = 0
KAM1 120630Z 03011KT 19/16 A3011 RMK A01 T01900157  RH  081%=      5-min Rain = 0
KAM1 120631Z 03012KT 19/16 A3011 RMK A01 T01890157  RH  081%=      5-min Rain = 0
KAM1 120632Z 03012KT 19/16 A3011 RMK A01 T01900157  RH  081%=      5-min Rain = 0
KAM1 120633Z 03011KT 19/16 A3011 RMK A01 T01900157  RH  081%=      5-min Rain = 0
KAM1 120634Z 03010KT 19/16 A3011 RMK A01 T01900157  RH  081%=      5-min Rain = 0
KAM1 120635Z 03011KT 19/16 A3011 RMK A01 T01910157  RH  081%=      5-min Rain = 0
KAM1 120636Z 03011KT 19/16 A3011 RMK A01 T01900157  RH  081%=      5-min Rain = 0
KAM1 120637Z 03010KT 19/16 A3011 RMK A01 T01900157  RH  081%=      5-min Rain = 0
KAM1 120638Z 04009KT 19/16 A3011 RMK A01 T01900158  RH  081%=      5-min Rain = 0
KAM1 120639Z 04008KT 19/16 A3011 RMK A01 T01890158  RH  082%=      5-min Rain = 0
KAM1 120640Z 04008KT 19/16 A3011 RMK A01 T01890158  RH  082%=      5-min Rain = 0
KAM1 120641Z 03009KT 19/16 A3012 RMK A01 T01880158  RH  082%=      5-min Rain = 0
KAM1 120642Z 03009KT 19/16 A3012 RMK A01 T01880157  RH  082%=      5-min Rain = 0
KAM1 120643Z 03008KT 19/16 A3012 RMK A01 T01890158  RH  082%=      5-min Rain = 0
KAM1 120644Z 03011KT 19/16 A3012 RMK A01 T01880158  RH  082%=      5-min Rain = 0
KAM1 120645Z 03012KT 19/16 A3012 RMK A01 T01880157  RH  082%=      5-min Rain = 0
KAM1 120646Z 03013KT 19/16 A3012 RMK A01 T01900157  RH  081%=      5-min Rain = 0
KAM1 120647Z 03014KT 19/16 A3012 RMK A01 T01910156  RH  081%=      5-min Rain = 0
KAM1 120648Z 03011KT 19/16 A3012 RMK A01 T01910156  RH  080%=      5-min Rain = 0
KAM1 120649Z 03012KT 19/16 A3012 RMK A01 T01910156  RH  080%=      5-min Rain = 0
KAM1 120650Z 03013KT 19/16 A3012 RMK A01 T01910155  RH  080%=      5-min Rain = 0
KAM1 120651Z 03014KT 19/16 A3012 RMK A01 T01910155  RH  080%=      5-min Rain = 0
KAM1 120652Z 03014G20KT 19/15 A3012 RMK A01 T01900153  RH  079%=      5-min Rain = 0
KAM1 120653Z 03016KT 19/15 A3012 RMK A01 T01900151  RH  078%=      5-min Rain = 0
KAM1 120654Z 03018KT 19/15 A3012 RMK A01 T01900148  RH  077%=      5-min Rain = 0
KAM1 120655Z 03015G20KT 19/15 A3013 RMK A01 T01900146  RH  076%=      5-min Rain = 0
KAM1 120656Z 03016KT 19/15 A3013 RMK A01 T01900145  RH  075%=      5-min Rain = 0
KAM1 120657Z 03017KT 19/14 A3013 RMK A01 T01890143  RH  074%=      5-min Rain = 0
KAM1 120658Z 03016KT 19/14 A3013 RMK A01 T01880141  RH  074%=      5-min Rain = 0
KAM1 120659Z 03015KT 19/14 A3013 RMK A01 T01880140  RH  074%=      5-min Rain = 0
KAM1 120700Z 03017KT 19/14 A3013 RMK A01 T01870139  RH  074%=      5-min Rain = 0
KAM1 120701Z 03016KT 19/14 A3013 RMK A01 T01870138  RH  073%=      5-min Rain = 0
KAM1 120702Z 03014G20KT 19/14 A3013 RMK A01 T01860138  RH  074%=      5-min Rain = 0
KAM1 120703Z 03019G24KT 19/14 A3013 RMK A01 T01850136  RH  073%=      5-min Rain = 0
KAM1 120704Z 03018G23KT 19/13 A3013 RMK A01 T01850133  RH  072%=      5-min Rain = 0
KAM1 120705Z 03019G24KT 19/13 A3013 RMK A01 T01850133  RH  072%=      5-min Rain = 0
KAM1 120706Z 03020G25KT 19/13 A3013 RMK A01 T01850131  RH  071%=      5-min Rain = 0
KAM1 120707Z 03019G26KT 19/13 A3013 RMK A01 T01850130  RH  070%=      5-min Rain = 0
KAM1 120708Z 03017G24KT 19/13 A3013 RMK A01 T01850130  RH  071%=      5-min Rain = 0
KAM1 120709Z 03021KT 18/13 A3013 RMK A01 T01840129  RH  070%=      5-min Rain = 0
KAM1 120710Z 03020G27KT 18/13 A3013 RMK A01 T01840128  RH  070%=      5-min Rain = 0
KAM1 120711Z 03018G23KT 19/13 A3013 RMK A01 T01850127  RH  069%=      5-min Rain = 0
KAM1 120712Z 03018KT 19/13 A3013 RMK A01 T01850128  RH  069%=      5-min Rain = 0
KAM1 120713Z 03019G24KT 18/13 A3013 RMK A01 T01840127  RH  069%=      5-min Rain = 0
KAM1 120714Z 03018G23KT 18/13 A3014 RMK A01 T01840126  RH  069%=      5-min Rain = 0
KAM1 120715Z 03017KT 18/13 A3014 RMK A01 T01840126  RH  069%=      5-min Rain = 0
KAM1 120716Z 03019KT 18/13 A3014 RMK A01 T01840126  RH  069%=      5-min Rain = 0
KAM1 120717Z 03018KT 18/13 A3014 RMK A01 T01840126  RH  069%=      5-min Rain = 0
KAM1 120718Z 03016G21KT 18/13 A3014 RMK A01 T01830126  RH  069%=      5-min Rain = 0
KAM1 120719Z 03015KT 18/13 A3014 RMK A01 T01830126  RH  069%=      5-min Rain = 0
KAM1 120720Z 03016KT 18/13 A3014 RMK A01 T01830126  RH  069%=      5-min Rain = 0
KAM1 120721Z 02017G22KT 18/13 A3014 RMK A01 T01820125  RH  069%=      5-min Rain = 0
KAM1 120722Z 03018KT 18/12 A3014 RMK A01 T01820124  RH  069%=      5-min Rain = 0
KAM1 120723Z 03016KT 18/12 A3014 RMK A01 T01820124  RH  069%=      5-min Rain = 0
KAM1 120724Z 03018KT 18/12 A3014 RMK A01 T01820124  RH  069%=      5-min Rain = 0
KAM1 120725Z 03017G23KT 18/12 A3014 RMK A01 T01820124  RH  069%=      5-min Rain = 0
KAM1 120726Z 03020KT 18/12 A3014 RMK A01 T01820122  RH  068%=      5-min Rain = 0
KAM1 120727Z 03020KT 18/12 A3014 RMK A01 T01820122  RH  068%=      5-min Rain = 0
KAM1 120728Z 03018G24KT 18/12 A3014 RMK A01 T01820121  RH  067%=      5-min Rain = 0
KAM1 120729Z 03018KT 18/12 A3014 RMK A01 T01830122  RH  068%=      5-min Rain = 0
KAM1 120730Z 03017G22KT 18/12 A3014 RMK A01 T01820121  RH  068%=      5-min Rain = 0
KAM1 120731Z 03016G21KT 18/12 A3014 RMK A01 T01810121  RH  068%=      5-min Rain = 0
KAM1 120732Z 03019G24KT 18/12 A3014 RMK A01 T01810121  RH  068%=      5-min Rain = 0
KAM1 120733Z 03017KT 18/12 A3014 RMK A01 T01810121  RH  068%=      5-min Rain = 0
KAM1 120734Z 03019KT 18/12 A3014 RMK A01 T01800120  RH  068%=      5-min Rain = 0
KAM1 120735Z 03018G23KT 18/12 A3014 RMK A01 T01800120  RH  068%=      5-min Rain = 0
KAM1 120736Z 03019G25KT 18/12 A3014 RMK A01 T01800119  RH  068%=      5-min Rain = 0
KAM1 120737Z 03020G25KT 18/12 A3014 RMK A01 T01800119  RH  067%=      5-min Rain = 0
KAM1 120738Z 03019KT 18/12 A3014 RMK A01 T01800119  RH  067%=      5-min Rain = 0
KAM1 120739Z 03017KT 18/12 A3014 RMK A01 T01800118  RH  067%=      5-min Rain = 0
KAM1 120740Z 03018KT 18/12 A3014 RMK A01 T01790118  RH  068%=      5-min Rain = 0
KAM1 120741Z 03021G26KT 18/12 A3014 RMK A01 T01780118  RH  068%=      5-min Rain = 0
KAM1 120742Z 03021KT 18/12 A3014 RMK A01 T01780117  RH  067%=      5-min Rain = 0
KAM1 120743Z 03018KT 18/12 A3014 RMK A01 T01790117  RH  067%=      5-min Rain = 0
KAM1 120744Z 03019G24KT 18/12 A3014 RMK A01 T01780117  RH  067%=      5-min Rain = 0
KAM1 120745Z 03019G25KT 18/12 A3014 RMK A01 T01780117  RH  067%=      5-min Rain = 0
KAM1 120746Z 03021KT 18/12 A3014 RMK A01 T01780117  RH  067%=      5-min Rain = 0
KAM1 120747Z 03020KT 18/12 A3015 RMK A01 T01770116  RH  067%=      5-min Rain = 0
KAM1 120748Z 03016G21KT 18/12 A3015 RMK A01 T01770117  RH  068%=      5-min Rain = 0
KAM1 120749Z 03019G24KT 18/12 A3015 RMK A01 T01770117  RH  068%=      5-min Rain = 0
KAM1 120750Z 03018KT 18/12 A3015 RMK A01 T01760116  RH  068%=      5-min Rain = 0
KAM1 120751Z 03022KT 18/12 A3015 RMK A01 T01760116  RH  067%=      5-min Rain = 0
KAM1 120752Z 03018G24KT 18/12 A3015 RMK A01 T01770116  RH  067%=      5-min Rain = 0
KAM1 120753Z 03020G27KT 18/12 A3015 RMK A01 T01770115  RH  067%=      5-min Rain = 0
KAM1 120754Z 03021G26KT 18/12 A3015 RMK A01 T01770115  RH  067%=      5-min Rain = 0
KAM1 120755Z 03015G21KT 18/12 A3015 RMK A01 T01770116  RH  067%=      5-min Rain = 0
KAM1 120756Z 03019KT 18/12 A3015 RMK A01 T01770116  RH  068%=      5-min Rain = 0
KAM1 120757Z 03015KT 18/12 A3015 RMK A01 T01760116  RH  068%=      5-min Rain = 0
KAM1 120758Z 03021G27KT 18/12 A3015 RMK A01 T01760116  RH  068%=      5-min Rain = 0
KAM1 120759Z 03020KT 18/12 A3015 RMK A01 T01760115  RH  067%=      5-min Rain = 0
KAM1 120800Z 03022KT 18/12 A3015 RMK A01 T01770115  RH  067%=      5-min Rain = 0
KAM1 120801Z 03019KT 18/11 A3015 RMK A01 T01770114  RH  067%=      5-min Rain = 0
KAM1 120802Z 03015G20KT 18/12 A3015 RMK A01 T01770115  RH  067%=      5-min Rain = 0
KAM1 120803Z 03017KT 18/12 A3015 RMK A01 T01760116  RH  068%=      5-min Rain = 0
KAM1 120804Z 03016KT 18/12 A3015 RMK A01 T01760116  RH  068%=      5-min Rain = 0
KAM1 120805Z 03017KT 18/12 A3015 RMK A01 T01750116  RH  068%=      5-min Rain = 0
KAM1 120806Z 03015G21KT 18/12 A3015 RMK A01 T01750116  RH  068%=      5-min Rain = 0
KAM1 120807Z 03016KT 18/12 A3015 RMK A01 T01750117  RH  068%=      5-min Rain = 0
KAM1 120808Z 03017KT 18/12 A3015 RMK A01 T01750116  RH  068%=      5-min Rain = 0
KAM1 120809Z 03017G22KT 18/12 A3015 RMK A01 T01750116  RH  068%=      5-min Rain = 0
KAM1 120810Z 03017G22KT 18/12 A3015 RMK A01 T01750116  RH  068%=      5-min Rain = 0
KAM1 120811Z 03016KT 18/12 A3015 RMK A01 T01760116  RH  068%=      5-min Rain = 0
KAM1 120812Z 03017KT 18/12 A3015 RMK A01 T01760116  RH  068%=      5-min Rain = 0
KAM1 120813Z 03016KT 18/12 A3015 RMK A01 T01760116  RH  068%=      5-min Rain = 0
KAM1 120814Z 03017KT 18/12 A3015 RMK A01 T01760116  RH  068%=      5-min Rain = 0
KAM1 120815Z 03018KT 18/12 A3015 RMK A01 T01750115  RH  068%=      5-min Rain = 0
KAM1 120816Z 03016G21KT 18/12 A3015 RMK A01 T01760115  RH  067%=      5-min Rain = 0
KAM1 120817Z 03016KT 18/12 A3015 RMK A01 T01760115  RH  067%=      5-min Rain = 0
KAM1 120818Z 03014KT 18/11 A3015 RMK A01 T01760114  RH  067%=      5-min Rain = 0
KAM1 120819Z 03015KT 18/12 A3015 RMK A01 T01760115  RH  067%=      5-min Rain = 0
KAM1 120820Z 03017KT 18/11 A3015 RMK A01 T01750114  RH  067%=      5-min Rain = 0
KAM1 120821Z 03017KT 18/11 A3015 RMK A01 T01750114  RH  067%=      5-min Rain = 0
KAM1 120822Z 03015G20KT 18/11 A3015 RMK A01 T01750114  RH  067%=      5-min Rain = 0
KAM1 120823Z 03014KT 17/11 A3015 RMK A01 T01740114  RH  068%=      5-min Rain = 0
KAM1 120824Z 03015KT 17/11 A3015 RMK A01 T01730114  RH  068%=      5-min Rain = 0
KAM1 120825Z 03014KT 17/12 A3016 RMK A01 T01730115  RH  068%=      5-min Rain = 0
KAM1 120826Z 03013KT 17/11 A3016 RMK A01 T01730114  RH  068%=      5-min Rain = 0
KAM1 120827Z 03011KT 17/12 A3016 RMK A01 T01730115  RH  069%=      5-min Rain = 0
KAM1 120828Z 03013KT 17/12 A3016 RMK A01 T01720115  RH  069%=      5-min Rain = 0
KAM1 120829Z 03013KT 17/12 A3016 RMK A01 T01720115  RH  069%=      5-min Rain = 0
KAM1 120830Z 03012KT 17/12 A3016 RMK A01 T01710115  RH  069%=      5-min Rain = 0
KAM1 120831Z 02013KT 17/12 A3016 RMK A01 T01710115  RH  070%=      5-min Rain = 0
KAM1 120832Z 03013KT 17/11 A3016 RMK A01 T01700114  RH  069%=      5-min Rain = 0
KAM1 120833Z 03013KT 17/12 A3016 RMK A01 T01710115  RH  069%=      5-min Rain = 0
KAM1 120834Z 03013KT 17/11 A3016 RMK A01 T01710114  RH  069%=      5-min Rain = 0
KAM1 120835Z 03016KT 17/11 A3016 RMK A01 T01700113  RH  069%=      5-min Rain = 0
KAM1 120836Z 03015KT 17/11 A3016 RMK A01 T01700111  RH  068%=      5-min Rain = 0
KAM1 120837Z 03012KT 17/11 A3016 RMK A01 T01710112  RH  068%=      5-min Rain = 0
KAM1 120838Z 03014KT 17/11 A3016 RMK A01 T01710112  RH  069%=      5-min Rain = 0
KAM1 120839Z 03015KT 17/11 A3016 RMK A01 T01700111  RH  068%=      5-min Rain = 0
KAM1 120840Z 03013KT 17/11 A3016 RMK A01 T01700110  RH  068%=      5-min Rain = 0
KAM1 120841Z 03013KT 17/11 A3016 RMK A01 T01700111  RH  068%=      5-min Rain = 0
KAM1 120842Z 03013KT 17/11 A3016 RMK A01 T01700110  RH  068%=      5-min Rain = 0
KAM1 120843Z 02012KT 17/11 A3016 RMK A01 T01700110  RH  068%=      5-min Rain = 0
KAM1 120844Z 03011KT 17/11 A3016 RMK A01 T01700111  RH  068%=      5-min Rain = 0
KAM1 120845Z 02013KT 17/11 A3016 RMK A01 T01690111  RH  068%=      5-min Rain = 0
KAM1 120846Z 02013KT 17/11 A3016 RMK A01 T01680109  RH  068%=      5-min Rain = 0
KAM1 120847Z 02015KT 17/11 A3016 RMK A01 T01690108  RH  067%=      5-min Rain = 0
KAM1 120848Z 03012KT 17/11 A3016 RMK A01 T01680107  RH  067%=      5-min Rain = 0
KAM1 120849Z 02013KT 17/11 A3016 RMK A01 T01690106  RH  067%=      5-min Rain = 0
KAM1 120850Z 02017KT 17/10 A3016 RMK A01 T01680104  RH  066%=      5-min Rain = 0
KAM1 120851Z 02015KT 17/10 A3016 RMK A01 T01690102  RH  065%=      5-min Rain = 0
KAM1 120852Z 03014KT 17/10 A3016 RMK A01 T01690102  RH  065%=      5-min Rain = 0
KAM1 120853Z 03014KT 17/10 A3016 RMK A01 T01690102  RH  065%=      5-min Rain = 0
KAM1 120854Z 03014KT 17/10 A3016 RMK A01 T01680102  RH  065%=      5-min Rain = 0
KAM1 120855Z 03013KT 17/10 A3016 RMK A01 T01680102  RH  065%=      5-min Rain = 0
KAM1 120856Z 02015KT 17/10 A3016 RMK A01 T01670101  RH  065%=      5-min Rain = 0
KAM1 120857Z 03013KT 17/10 A3016 RMK A01 T01670100  RH  065%=      5-min Rain = 0
KAM1 120858Z 03014KT 17/10 A3016 RMK A01 T01670100  RH  064%=      5-min Rain = 0
KAM1 120859Z 03013KT 17/10 A3016 RMK A01 T01670100  RH  065%=      5-min Rain = 0
KAM1 120900Z 03012KT 17/10 A3016 RMK A01 T01660099  RH  065%=      5-min Rain = 0
KAM1 120901Z 03011KT 17/10 A3016 RMK A01 T01660100  RH  065%=      5-min Rain = 0
KAM1 120902Z 03013KT 17/10 A3016 RMK A01 T01650099  RH  065%=      5-min Rain = 0
KAM1 120903Z 03012KT 16/10 A3016 RMK A01 T01640098  RH  065%=      5-min Rain = 0
KAM1 120904Z 03011KT 16/10 A3016 RMK A01 T01640098  RH  065%=      5-min Rain = 0
KAM1 120905Z 02012KT 16/10 A3016 RMK A01 T01630097  RH  065%=      5-min Rain = 0
KAM1 120906Z 02012KT 16/10 A3016 RMK A01 T01630097  RH  065%=      5-min Rain = 0
KAM1 120907Z 02011KT 16/10 A3016 RMK A01 T01620097  RH  065%=      5-min Rain = 0
KAM1 120908Z 02012KT 16/10 A3016 RMK A01 T01620096  RH  065%=      5-min Rain = 0
KAM1 120909Z 02011KT 16/10 A3016 RMK A01 T01610096  RH  065%=      5-min Rain = 0
KAM1 120910Z 02011KT 16/10 A3016 RMK A01 T01600097  RH  066%=      5-min Rain = 0
KAM1 120911Z 02009KT 16/10 A3016 RMK A01 T01600097  RH  066%=      5-min Rain = 0
KAM1 120912Z 02010KT 16/10 A3016 RMK A01 T01590098  RH  067%=      5-min Rain = 0
KAM1 120913Z 02010KT 16/10 A3016 RMK A01 T01590099  RH  068%=      5-min Rain = 0
KAM1 120914Z 02011G17KT 16/10 A3016 RMK A01 T01580100  RH  068%=      5-min Rain = 0
KAM1 120915Z 02014KT 16/10 A3016 RMK A01 T01570099  RH  068%=      5-min Rain = 0
KAM1 120916Z 02012KT 16/10 A3016 RMK A01 T01590099  RH  068%=      5-min Rain = 0
KAM1 120917Z 02010KT 16/10 A3016 RMK A01 T01590100  RH  068%=      5-min Rain = 0
KAM1 120918Z 02010KT 16/10 A3016 RMK A01 T01580101  RH  068%=      5-min Rain = 0
KAM1 120919Z 02011KT 16/10 A3016 RMK A01 T01570100  RH  069%=      5-min Rain = 0
KAM1 120920Z 02011KT 16/10 A3016 RMK A01 T01570100  RH  069%=      5-min Rain = 0
KAM1 120921Z 02012KT 16/10 A3016 RMK A01 T01560100  RH  069%=      5-min Rain = 0
KAM1 120922Z 02011KT 16/10 A3016 RMK A01 T01560099  RH  069%=      5-min Rain = 0
KAM1 120923Z 02013KT 16/10 A3016 RMK A01 T01570099  RH  069%=      5-min Rain = 0
KAM1 120924Z 02012KT 16/10 A3016 RMK A01 T01570099  RH  068%=      5-min Rain = 0
KAM1 120925Z 02012KT 16/10 A3016 RMK A01 T01560099  RH  068%=      5-min Rain = 0
KAM1 120926Z 02012KT 16/10 A3016 RMK A01 T01570099  RH  069%=      5-min Rain = 0
KAM1 120927Z 02012KT 16/10 A3016 RMK A01 T01570100  RH  069%=      5-min Rain = 0
KAM1 120928Z 02012KT 16/10 A3016 RMK A01 T01570099  RH  068%=      5-min Rain = 0
KAM1 120929Z 02012KT 16/10 A3016 RMK A01 T01570098  RH  068%=      5-min Rain = 0
KAM1 120930Z 02012G17KT 16/10 A3016 RMK A01 T01570098  RH  068%=      5-min Rain = 0
KAM1 120931Z 02011KT 16/10 A3015 RMK A01 T01570098  RH  068%=      5-min Rain = 0
KAM1 120932Z 02011KT 16/10 A3015 RMK A01 T01570098  RH  068%=      5-min Rain = 0
KAM1 120933Z 02012KT 16/10 A3015 RMK A01 T01560098  RH  068%=      5-min Rain = 0
KAM1 120934Z 03012KT 16/10 A3016 RMK A01 T01560097  RH  068%=      5-min Rain = 0
KAM1 120935Z 02011KT 16/10 A3016 RMK A01 T01560097  RH  068%=      5-min Rain = 0
KAM1 120936Z 02012KT 16/10 A3016 RMK A01 T01550097  RH  068%=      5-min Rain = 0
KAM1 120937Z 02013KT 16/10 A3016 RMK A01 T01550097  RH  069%=      5-min Rain = 0
KAM1 120938Z 02011KT 16/10 A3016 RMK A01 T01550097  RH  068%=      5-min Rain = 0
KAM1 120939Z 02013KT 16/10 A3016 RMK A01 T01550096  RH  068%=      5-min Rain = 0
KAM1 120940Z 03011KT 16/10 A3016 RMK A01 T01550096  RH  068%=      5-min Rain = 0
KAM1 120941Z 02013KT 16/10 A3016 RMK A01 T01550096  RH  068%=      5-min Rain = 0
KAM1 120942Z 02011KT 16/10 A3016 RMK A01 T01550096  RH  068%=      5-min Rain = 0
KAM1 120943Z 02012KT 16/10 A3016 RMK A01 T01550096  RH  068%=      5-min Rain = 0
KAM1 120944Z 02012KT 16/10 A3016 RMK A01 T01550096  RH  068%=      5-min Rain = 0
KAM1 120945Z 02011KT 15/10 A3016 RMK A01 T01540096  RH  068%=      5-min Rain = 0
KAM1 120946Z 02011KT 15/10 A3016 RMK A01 T01540096  RH  068%=      5-min Rain = 0
KAM1 120947Z 02011KT 15/10 A3016 RMK A01 T01540096  RH  068%=      5-min Rain = 0
KAM1 120948Z 03013KT 15/10 A3016 RMK A01 T01540096  RH  068%=      5-min Rain = 0
KAM1 120949Z 02012KT 15/10 A3016 RMK A01 T01540096  RH  068%=      5-min Rain = 0
KAM1 120950Z 02012KT 15/10 A3016 RMK A01 T01540096  RH  068%=      5-min Rain = 0
KAM1 120951Z 02012KT 15/10 A3016 RMK A01 T01540096  RH  068%=      5-min Rain = 0
KAM1 120952Z 02011KT 15/10 A3016 RMK A01 T01530097  RH  069%=      5-min Rain = 0
KAM1 120953Z 02012KT 15/10 A3016 RMK A01 T01530096  RH  069%=      5-min Rain = 0
KAM1 120954Z 02012KT 15/10 A3016 RMK A01 T01530096  RH  069%=      5-min Rain = 0
KAM1 120955Z 02013KT 15/10 A3016 RMK A01 T01530096  RH  069%=      5-min Rain = 0
KAM1 120956Z 02011KT 15/10 A3016 RMK A01 T01530096  RH  069%=      5-min Rain = 0
KAM1 120957Z 02010KT 15/10 A3016 RMK A01 T01530096  RH  069%=      5-min Rain = 0
KAM1 120958Z 02012KT 15/10 A3016 RMK A01 T01520097  RH  069%=      5-min Rain = 0
KAM1 120959Z 02012KT 15/10 A3016 RMK A01 T01520096  RH  069%=      5-min Rain = 0
KAM1 121000Z 02011KT 15/10 A3016 RMK A01 T01520095  RH  069%=      5-min Rain = 0
KAM1 121001Z 02011KT 15/10 A3016 RMK A01 T01520095  RH  069%=      5-min Rain = 0
KAM1 121002Z 02011KT 15/10 A3016 RMK A01 T01520096  RH  069%=      5-min Rain = 0
KAM1 121003Z 02010KT 15/10 A3016 RMK A01 T01520096  RH  069%=      5-min Rain = 0
KAM1 121004Z 02010KT 15/10 A3016 RMK A01 T01520096  RH  069%=      5-min Rain = 0
KAM1 121005Z 02010KT 15/10 A3016 RMK A01 T01510097  RH  070%=      5-min Rain = 0
KAM1 121006Z 02010KT 15/10 A3016 RMK A01 T01500097  RH  071%=      5-min Rain = 0
KAM1 121007Z 02010KT 15/10 A3016 RMK A01 T01490097  RH  071%=      5-min Rain = 0
KAM1 121008Z 02010KT 15/10 A3016 RMK A01 T01490097  RH  071%=      5-min Rain = 0
KAM1 121009Z 01009KT 15/10 A3016 RMK A01 T01480096  RH  071%=      5-min Rain = 0
KAM1 121010Z 01010KT 15/10 A3016 RMK A01 T01480097  RH  071%=      5-min Rain = 0
KAM1 121011Z 01009KT 15/10 A3016 RMK A01 T01480097  RH  071%=      5-min Rain = 0
KAM1 121012Z 02010KT 15/10 A3016 RMK A01 T01480097  RH  072%=      5-min Rain = 0
KAM1 121013Z 01009KT 15/10 A3016 RMK A01 T01470097  RH  072%=      5-min Rain = 0
KAM1 121014Z 01009KT 15/10 A3016 RMK A01 T01470097  RH  072%=      5-min Rain = 0
KAM1 121015Z 01009KT 15/10 A3017 RMK A01 T01470097  RH  072%=      5-min Rain = 0
KAM1 121016Z 01010KT 15/10 A3017 RMK A01 T01460097  RH  072%=      5-min Rain = 0
KAM1 121017Z 01010KT 15/10 A3017 RMK A01 T01460097  RH  072%=      5-min Rain = 0
KAM1 121018Z 01010KT 15/10 A3017 RMK A01 T01460097  RH  072%=      5-min Rain = 0
KAM1 121019Z 01008KT 15/10 A3017 RMK A01 T01460098  RH  073%=      5-min Rain = 0
KAM1 121020Z 01010KT 15/10 A3017 RMK A01 T01450098  RH  073%=      5-min Rain = 0
KAM1 121021Z 01010KT 15/10 A3017 RMK A01 T01450098  RH  073%=      5-min Rain = 0
KAM1 121022Z 01010KT 15/10 A3017 RMK A01 T01460098  RH  073%=      5-min Rain = 0
KAM1 121023Z 01011KT 15/10 A3017 RMK A01 T01460099  RH  073%=      5-min Rain = 0
KAM1 121024Z 01011KT 15/10 A3017 RMK A01 T01450098  RH  073%=      5-min Rain = 0
KAM1 121025Z 01010KT 15/10 A3017 RMK A01 T01460099  RH  073%=      5-min Rain = 0
KAM1 121026Z 01011KT 15/10 A3017 RMK A01 T01460099  RH  073%=      5-min Rain = 0
KAM1 121027Z 01011KT 15/10 A3017 RMK A01 T01460099  RH  073%=      5-min Rain = 0
KAM1 121028Z 01010KT 15/10 A3017 RMK A01 T01460099  RH  074%=      5-min Rain = 0
KAM1 121029Z 01012KT 15/10 A3017 RMK A01 T01450099  RH  074%=      5-min Rain = 0
KAM1 121030Z 01011KT 15/10 A3017 RMK A01 T01450099  RH  074%=      5-min Rain = 0
KAM1 121031Z 01011KT 15/10 A3017 RMK A01 T01450099  RH  074%=      5-min Rain = 0
KAM1 121032Z 01010KT 15/10 A3017 RMK A01 T01450100  RH  074%=      5-min Rain = 0
KAM1 121033Z 01012KT 15/10 A3017 RMK A01 T01450100  RH  074%=      5-min Rain = 0
KAM1 121034Z 01012KT 15/10 A3017 RMK A01 T01450100  RH  074%=      5-min Rain = 0
KAM1 121035Z 01012KT 15/10 A3017 RMK A01 T01450099  RH  074%=      5-min Rain = 0
KAM1 121036Z 01013KT 15/10 A3017 RMK A01 T01450100  RH  074%=      5-min Rain = 0
KAM1 121037Z 01011KT 15/10 A3017 RMK A01 T01450100  RH  074%=      5-min Rain = 0
KAM1 121038Z 01012KT 15/10 A3017 RMK A01 T01450099  RH  074%=      5-min Rain = 0
KAM1 121039Z 01011KT 15/10 A3017 RMK A01 T01450099  RH  074%=      5-min Rain = 0
KAM1 121040Z 01011KT 15/10 A3017 RMK A01 T01450099  RH  074%=      5-min Rain = 0
KAM1 121041Z 01011KT 15/10 A3017 RMK A01 T01460100  RH  074%=      5-min Rain = 0
KAM1 121042Z 01010KT 15/10 A3018 RMK A01 T01450100  RH  074%=      5-min Rain = 0
KAM1 121043Z 01010KT 15/10 A3018 RMK A01 T01450100  RH  074%=      5-min Rain = 0
KAM1 121044Z 01010KT 14/10 A3018 RMK A01 T01440100  RH  074%=      5-min Rain = 0
KAM1 121045Z 01010KT 14/10 A3018 RMK A01 T01440099  RH  075%=      5-min Rain = 0
KAM1 121046Z 01010KT 14/10 A3018 RMK A01 T01440099  RH  075%=      5-min Rain = 0
KAM1 121047Z 01009G14KT 14/10 A3018 RMK A01 T01440099  RH  075%=      5-min Rain = 0
KAM1 121048Z 01011KT 14/10 A3018 RMK A01 T01440099  RH  074%=      5-min Rain = 0
KAM1 121049Z 01010KT 15/10 A3018 RMK A01 T01450099  RH  074%=      5-min Rain = 0
KAM1 121050Z 01010KT 14/10 A3018 RMK A01 T01440100  RH  074%=      5-min Rain = 0
KAM1 121051Z 01009KT 14/10 A3018 RMK A01 T01440100  RH  075%=      5-min Rain = 0
KAM1 121052Z 01011KT 15/10 A3018 RMK A01 T01450100  RH  075%=      5-min Rain = 0
KAM1 121053Z 01010KT 15/10 A3018 RMK A01 T01450099  RH  074%=      5-min Rain = 0
KAM1 121054Z 01010KT 15/10 A3018 RMK A01 T01450100  RH  074%=      5-min Rain = 0
KAM1 121055Z 01009KT 15/10 A3018 RMK A01 T01450100  RH  074%=      5-min Rain = 0
KAM1 121056Z 01011KT 15/10 A3018 RMK A01 T01450100  RH  075%=      5-min Rain = 0
KAM1 121057Z 01009KT 14/10 A3018 RMK A01 T01440100  RH  075%=      5-min Rain = 0
KAM1 121058Z 01010KT 14/10 A3018 RMK A01 T01440100  RH  075%=      5-min Rain = 0
KAM1 121059Z 01011KT 14/10 A3018 RMK A01 T01440100  RH  075%=      5-min Rain = 0
KAM1 121100Z 01011KT 14/10 A3018 RMK A01 T01440100  RH  075%=      5-min Rain = 0
KAM1 121101Z 01010KT 14/10 A3018 RMK A01 T01440100  RH  075%=      5-min Rain = 0
KAM1 121102Z 01011KT 14/10 A3018 RMK A01 T01440100  RH  075%=      5-min Rain = 0
KAM1 121103Z 01013KT 14/10 A3018 RMK A01 T01440100  RH  075%=      5-min Rain = 0
KAM1 121104Z 01011G17KT 15/10 A3018 RMK A01 T01450100  RH  074%=      5-min Rain = 0
KAM1 121105Z 01011KT 15/10 A3018 RMK A01 T01450099  RH  074%=      5-min Rain = 0
KAM1 121106Z 01012KT 15/10 A3018 RMK A01 T01450099  RH  074%=      5-min Rain = 0
KAM1 121107Z 01011KT 15/10 A3018 RMK A01 T01450099  RH  074%=      5-min Rain = 0
KAM1 121108Z 00012KT 15/10 A3018 RMK A01 T01450100  RH  074%=      5-min Rain = 0
KAM1 121109Z 00011KT 15/10 A3019 RMK A01 T01450099  RH  074%=      5-min Rain = 0
KAM1 121110Z 01012KT 15/10 A3019 RMK A01 T01450100  RH  074%=      5-min Rain = 0
KAM1 121111Z 00011KT 15/10 A3019 RMK A01 T01450099  RH  074%=      5-min Rain = 0
KAM1 121112Z 01010KT 15/10 A3019 RMK A01 T01450100  RH  074%=      5-min Rain = 0
KAM1 121113Z 01010KT 15/10 A3019 RMK A01 T01450100  RH  075%=      5-min Rain = 0
KAM1 121114Z 01011KT 14/10 A3019 RMK A01 T01440100  RH  075%=      5-min Rain = 0
KAM1 121115Z 01012KT 14/10 A3019 RMK A01 T01440100  RH  075%=      5-min Rain = 0
KAM1 121116Z 01011KT 15/10 A3019 RMK A01 T01450101  RH  075%=      5-min Rain = 0
KAM1 121117Z 00012KT 15/10 A3019 RMK A01 T01450101  RH  075%=      5-min Rain = 0
KAM1 121118Z 01012KT 15/10 A3019 RMK A01 T01450100  RH  074%=      5-min Rain = 0
KAM1 121119Z 01013KT 15/10 A3019 RMK A01 T01450100  RH  074%=      5-min Rain = 0
KAM1 121120Z 01012KT 15/10 A3019 RMK A01 T01460100  RH  074%=      5-min Rain = 0
KAM1 121121Z 01015KT 15/10 A3019 RMK A01 T01470100  RH  073%=      5-min Rain = 0
KAM1 121122Z 01012G17KT 15/10 A3019 RMK A01 T01470100  RH  073%=      5-min Rain = 0
KAM1 121123Z 01013KT 15/10 A3019 RMK A01 T01480100  RH  073%=      5-min Rain = 0
KAM1 121124Z 01012KT 15/10 A3019 RMK A01 T01470100  RH  073%=      5-min Rain = 0
KAM1 121125Z 01012KT 15/10 A3019 RMK A01 T01470101  RH  074%=      5-min Rain = 0
KAM1 121126Z 01012KT 15/10 A3019 RMK A01 T01470101  RH  074%=      5-min Rain = 0
KAM1 121127Z 01011KT 15/10 A3019 RMK A01 T01470101  RH  074%=      5-min Rain = 0
KAM1 121128Z 01012KT 15/10 A3019 RMK A01 T01470101  RH  074%=      5-min Rain = 0
KAM1 121129Z 01011KT 15/10 A3019 RMK A01 T01460101  RH  074%=      5-min Rain = 0
KAM1 121130Z 01013KT 15/10 A3019 RMK A01 T01460101  RH  074%=      5-min Rain = 0
KAM1 121131Z 01014KT 15/10 A3019 RMK A01 T01460101  RH  074%=      5-min Rain = 0
KAM1 121132Z 01013KT 15/10 A3019 RMK A01 T01460101  RH  074%=      5-min Rain = 0
KAM1 121133Z 01012KT 15/10 A3019 RMK A01 T01460100  RH  074%=      5-min Rain = 0
KAM1 121134Z 01011KT 15/10 A302 RMK A01 T01470100  RH  074%=      5-min Rain = 0
KAM1 121135Z 01012KT 15/10 A302 RMK A01 T01470101  RH  074%=      5-min Rain = 0
KAM1 121136Z 01013KT 15/10 A302 RMK A01 T01460100  RH  074%=      5-min Rain = 0
KAM1 121137Z 01014KT 15/10 A302 RMK A01 T01460100  RH  074%=      5-min Rain = 0
KAM1 121138Z 01013KT 15/10 A302 RMK A01 T01460101  RH  074%=      5-min Rain = 0
KAM1 121139Z 01013KT 15/10 A302 RMK A01 T01460101  RH  074%=      5-min Rain = 0
KAM1 121140Z 01013KT 15/10 A302 RMK A01 T01460101  RH  074%=      5-min Rain = 0
KAM1 121141Z 01012KT 15/10 A302 RMK A01 T01460101  RH  074%=      5-min Rain = 0
KAM1 121142Z 00013KT 15/10 A302 RMK A01 T01460101  RH  074%=      5-min Rain = 0
KAM1 121143Z 01013KT 15/10 A302 RMK A01 T01460101  RH  074%=      5-min Rain = 0
KAM1 121144Z 01013KT 15/10 A302 RMK A01 T01460101  RH  074%=      5-min Rain = 0
KAM1 121145Z 01012KT 15/10 A302 RMK A01 T01460102  RH  075%=      5-min Rain = 0
KAM1 121146Z 01011KT 15/10 A302 RMK A01 T01460102  RH  075%=      5-min Rain = 0
KAM1 121147Z 01011KT 15/10 A302 RMK A01 T01460102  RH  075%=      5-min Rain = 0
KAM1 121148Z 00012KT 15/10 A302 RMK A01 T01460103  RH  075%=      5-min Rain = 0
KAM1 121149Z 01012KT 15/10 A302 RMK A01 T01460103  RH  075%=      5-min Rain = 0
KAM1 121150Z 01013KT 15/10 A3021 RMK A01 T01460103  RH  075%=      5-min Rain = 0
KAM1 121151Z 00011KT 15/10 A3021 RMK A01 T01460103  RH  075%=      5-min Rain = 0
KAM1 121152Z 01012KT 15/10 A3021 RMK A01 T01470103  RH  075%=      5-min Rain = 0
KAM1 121153Z 00011KT 15/10 A3021 RMK A01 T01470104  RH  075%=      5-min Rain = 0
KAM1 121154Z 00011KT 15/10 A3021 RMK A01 T01470104  RH  075%=      5-min Rain = 0
KAM1 121155Z 00010KT 15/10 A3021 RMK A01 T01470104  RH  076%=      5-min Rain = 0
KAM1 121156Z 01010KT 15/10 A3021 RMK A01 T01470104  RH  076%=      5-min Rain = 0
KAM1 121157Z 01012KT 15/10 A3021 RMK A01 T01460103  RH  075%=      5-min Rain = 0
KAM1 121158Z 01011KT 15/10 A3021 RMK A01 T01470104  RH  075%=      5-min Rain = 0
KAM1 121159Z 01012KT 15/10 A3021 RMK A01 T01480104  RH  075%=      5-min Rain = 0
KAM1 121200Z 00012KT 15/10 A3021 RMK A01 T01480103  RH  074%=      5-min Rain = 0
KAM1 121201Z 01011KT 15/10 A3021 RMK A01 T01490104  RH  074%=      5-min Rain = 0
KAM1 121202Z 01011KT 15/10 A3021 RMK A01 T01490104  RH  075%=      5-min Rain = 0
KAM1 121203Z 00013KT 15/10 A3021 RMK A01 T01490104  RH  074%=      5-min Rain = 0
KAM1 121204Z 00011KT 15/10 A3021 RMK A01 T01500104  RH  074%=      5-min Rain = 0
KAM1 121205Z 01010KT 15/11 A3022 RMK A01 T01500105  RH  074%=      5-min Rain = 0
KAM1 121206Z 01010KT 15/11 A3022 RMK A01 T01500105  RH  075%=      5-min Rain = 0
KAM1 121207Z 00011G16KT 15/11 A3022 RMK A01 T01500105  RH  075%=      5-min Rain = 0
KAM1 121208Z 01014KT 15/10 A3022 RMK A01 T01500104  RH  074%=      5-min Rain = 0
KAM1 121209Z 01013KT 15/10 A3022 RMK A01 T01500104  RH  073%=      5-min Rain = 0
KAM1 121210Z 00012KT 15/10 A3022 RMK A01 T01510104  RH  073%=      5-min Rain = 0
KAM1 121211Z 00011KT 15/11 A3022 RMK A01 T01510105  RH  074%=      5-min Rain = 0
KAM1 121212Z 01011KT 15/11 A3022 RMK A01 T01510105  RH  074%=      5-min Rain = 0
KAM1 121213Z 00013KT 15/11 A3022 RMK A01 T01500105  RH  074%=      5-min Rain = 0
KAM1 121214Z 01013KT 15/10 A3022 RMK A01 T01500104  RH  074%=      5-min Rain = 0
KAM1 121215Z 01012KT 15/10 A3022 RMK A01 T01500104  RH  074%=      5-min Rain = 0
KAM1 121216Z 01012KT 15/10 A3022 RMK A01 T01500104  RH  074%=      5-min Rain = 0
KAM1 121217Z 01013KT 15/10 A3022 RMK A01 T01500104  RH  074%=      5-min Rain = 0
KAM1 121218Z 01011KT 15/10 A3022 RMK A01 T01500103  RH  073%=      5-min Rain = 0
KAM1 121219Z 00012KT 15/10 A3022 RMK A01 T01500103  RH  073%=      5-min Rain = 0
KAM1 121220Z 00013KT 15/10 A3022 RMK A01 T01500103  RH  073%=      5-min Rain = 0
KAM1 121221Z 01012KT 15/10 A3022 RMK A01 T01500102  RH  073%=      5-min Rain = 0
KAM1 121222Z 01012KT 15/10 A3022 RMK A01 T01500102  RH  073%=      5-min Rain = 0
KAM1 121223Z 01013KT 15/10 A3022 RMK A01 T01500102  RH  073%=      5-min Rain = 0
KAM1 121224Z 01012KT 15/10 A3022 RMK A01 T01500102  RH  073%=      5-min Rain = 0
KAM1 121225Z 01012KT 15/10 A3022 RMK A01 T01500102  RH  073%=      5-min Rain = 0
KAM1 121226Z 00012KT 15/10 A3022 RMK A01 T01500101  RH  072%=      5-min Rain = 0
KAM1 121227Z 01014KT 15/10 A3022 RMK A01 T01500101  RH  072%=      5-min Rain = 0
KAM1 121228Z 01013KT 15/10 A3023 RMK A01 T01500101  RH  072%=      5-min Rain = 0
KAM1 121229Z 00013KT 15/10 A3023 RMK A01 T01500101  RH  072%=      5-min Rain = 0
KAM1 121230Z 01011KT 15/10 A3023 RMK A01 T01500101  RH  072%=      5-min Rain = 0
KAM1 121231Z 00010KT 15/10 A3023 RMK A01 T01500102  RH  073%=      5-min Rain = 0
KAM1 121232Z 01011KT 15/10 A3023 RMK A01 T01500102  RH  073%=      5-min Rain = 0
KAM1 121233Z 00012KT 15/10 A3023 RMK A01 T01500101  RH  073%=      5-min Rain = 0
KAM1 121234Z 01013KT 15/10 A3023 RMK A01 T01500099  RH  072%=      5-min Rain = 0
KAM1 121235Z 01013KT 15/10 A3023 RMK A01 T01500099  RH  072%=      5-min Rain = 0
KAM1 121236Z 01014KT 15/10 A3023 RMK A01 T01500099  RH  071%=      5-min Rain = 0
KAM1 121237Z 00012KT 15/10 A3023 RMK A01 T01500098  RH  071%=      5-min Rain = 0
KAM1 121238Z 01011KT 15/10 A3023 RMK A01 T01500100  RH  072%=      5-min Rain = 0
KAM1 121239Z 00011KT 15/10 A3023 RMK A01 T01500100  RH  072%=      5-min Rain = 0
KAM1 121240Z 01010KT 15/10 A3023 RMK A01 T01500100  RH  072%=      5-min Rain = 0
KAM1 121241Z 01011KT 15/10 A3023 RMK A01 T01500100  RH  072%=      5-min Rain = 0
KAM1 121242Z 01014KT 15/10 A3023 RMK A01 T01500099  RH  072%=      5-min Rain = 0
KAM1 121243Z 01012KT 15/10 A3023 RMK A01 T01500098  RH  071%=      5-min Rain = 0
KAM1 121244Z 01011KT 15/10 A3023 RMK A01 T01500099  RH  072%=      5-min Rain = 0
KAM1 121245Z 01012KT 15/10 A3023 RMK A01 T01500099  RH  072%=      5-min Rain = 0
KAM1 121246Z 00014KT 15/10 A3023 RMK A01 T01500099  RH  072%=      5-min Rain = 0
KAM1 121247Z 01012KT 15/10 A3023 RMK A01 T01500098  RH  071%=      5-min Rain = 0
KAM1 121248Z 01012KT 15/10 A3023 RMK A01 T01500099  RH  071%=      5-min Rain = 0
KAM1 121249Z 01011KT 15/10 A3023 RMK A01 T01500099  RH  071%=      5-min Rain = 0
KAM1 121250Z 01011KT 15/10 A3023 RMK A01 T01510100  RH  072%=      5-min Rain = 0
KAM1 121251Z 01011KT 15/10 A3023 RMK A01 T01510100  RH  071%=      5-min Rain = 0
KAM1 121252Z 01010KT 15/10 A3023 RMK A01 T01510099  RH  071%=      5-min Rain = 0
KAM1 121253Z 01010KT 15/10 A3023 RMK A01 T01520101  RH  072%=      5-min Rain = 0
KAM1 121254Z 01012KT 15/10 A3023 RMK A01 T01520099  RH  071%=      5-min Rain = 0
KAM1 121255Z 01011KT 15/10 A3023 RMK A01 T01530098  RH  070%=      5-min Rain = 0
KAM1 121256Z 01012KT 15/10 A3023 RMK A01 T01530099  RH  070%=      5-min Rain = 0
KAM1 121257Z 00014KT 15/10 A3023 RMK A01 T01530098  RH  070%=      5-min Rain = 0
KAM1 121258Z 01012KT 15/10 A3023 RMK A01 T01530097  RH  069%=      5-min Rain = 0
KAM1 121259Z 01012KT 15/10 A3023 RMK A01 T01530098  RH  070%=      5-min Rain = 0
KAM1 121300Z 01011KT 15/10 A3023 RMK A01 T01530099  RH  070%=      5-min Rain = 0
KAM1 121301Z 01013KT 15/10 A3023 RMK A01 T01530098  RH  070%=      5-min Rain = 0
KAM1 121302Z 00011KT 15/10 A3023 RMK A01 T01530098  RH  070%=      5-min Rain = 0
KAM1 121303Z 01013KT 15/10 A3023 RMK A01 T01530099  RH  070%=      5-min Rain = 0
KAM1 121304Z 01014KT 15/10 A3023 RMK A01 T01520097  RH  070%=      5-min Rain = 0
KAM1 121305Z 01011KT 15/10 A3024 RMK A01 T01520096  RH  069%=      5-min Rain = 0
KAM1 121306Z 01010KT 15/10 A3024 RMK A01 T01520097  RH  070%=      5-min Rain = 0
KAM1 121307Z 01012KT 15/10 A3024 RMK A01 T01520097  RH  070%=      5-min Rain = 0
KAM1 121308Z 01012KT 15/10 A3024 RMK A01 T01520097  RH  069%=      5-min Rain = 0
KAM1 121309Z 01010G15KT 15/10 A3024 RMK A01 T01520096  RH  069%=      5-min Rain = 0
KAM1 121310Z 01010KT 15/10 A3024 RMK A01 T01530098  RH  070%=      5-min Rain = 0
KAM1 121311Z 01010KT 15/10 A3024 RMK A01 T01530098  RH  070%=      5-min Rain = 0
KAM1 121312Z 01013KT 15/10 A3024 RMK A01 T01530097  RH  069%=      5-min Rain = 0
KAM1 121313Z 01012KT 15/10 A3024 RMK A01 T01530095  RH  068%=      5-min Rain = 0
KAM1 121314Z 01011KT 15/10 A3024 RMK A01 T01530096  RH  069%=      5-min Rain = 0
KAM1 121315Z 01012KT 15/10 A3024 RMK A01 T01540096  RH  068%=      5-min Rain = 0
KAM1 121316Z 01014KT 16/09 A3024 RMK A01 T01550094  RH  067%=      5-min Rain = 0
KAM1 121317Z 01014KT 16/09 A3024 RMK A01 T01550094  RH  067%=      5-min Rain = 0
KAM1 121318Z 01014KT 16/09 A3024 RMK A01 T01550094  RH  067%=      5-min Rain = 0
KAM1 121319Z 00012KT 16/09 A3024 RMK A01 T01550094  RH  067%=      5-min Rain = 0
KAM1 121320Z 01013KT 16/10 A3024 RMK A01 T01550096  RH  068%=      5-min Rain = 0
KAM1 121321Z 01011KT 16/10 A3024 RMK A01 T01550095  RH  067%=      5-min Rain = 0
KAM1 121322Z 01012KT 16/10 A3024 RMK A01 T01550095  RH  067%=      5-min Rain = 0
KAM1 121323Z 01016KT 16/09 A3024 RMK A01 T01550093  RH  066%=      5-min Rain = 0
KAM1 121324Z 02013KT 16/09 A3024 RMK A01 T01560091  RH  065%=      5-min Rain = 0
KAM1 121325Z 01011KT 16/10 A3024 RMK A01 T01580095  RH  066%=      5-min Rain = 0
KAM1 121326Z 01011KT 16/10 A3024 RMK A01 T01610098  RH  066%=      5-min Rain = 0
KAM1 121327Z 01012KT 16/10 A3024 RMK A01 T01630098  RH  065%=      5-min Rain = 0
KAM1 121328Z 01014KT 16/10 A3024 RMK A01 T01640095  RH  063%=      5-min Rain = 0
KAM1 121329Z 01012KT 17/09 A3024 RMK A01 T01650094  RH  063%=      5-min Rain = 0
KAM1 121330Z 01015KT 17/09 A3024 RMK A01 T01650094  RH  063%=      5-min Rain = 0
KAM1 121331Z 01013G19KT 17/09 A3024 RMK A01 T01650092  RH  062%=      5-min Rain = 0
KAM1 121332Z 01015KT 17/09 A3024 RMK A01 T01650093  RH  062%=      5-min Rain = 0
KAM1 121333Z 02016KT 16/09 A3025 RMK A01 T01640090  RH  062%=      5-min Rain = 0
KAM1 121334Z 01012KT 16/09 A3025 RMK A01 T01630090  RH  062%=      5-min Rain = 0
KAM1 121335Z 01011KT 16/09 A3025 RMK A01 T01630093  RH  063%=      5-min Rain = 0
KAM1 121336Z 01012KT 17/10 A3025 RMK A01 T01650095  RH  063%=      5-min Rain = 0
KAM1 121337Z 01014KT 17/09 A3025 RMK A01 T01660092  RH  062%=      5-min Rain = 0
KAM1 121338Z 01014KT 17/09 A3025 RMK A01 T01650091  RH  061%=      5-min Rain = 0
KAM1 121339Z 01014KT 16/09 A3025 RMK A01 T01640091  RH  062%=      5-min Rain = 0
KAM1 121340Z 00014G19KT 16/09 A3025 RMK A01 T01640090  RH  062%=      5-min Rain = 0
KAM1 121341Z 02011KT 16/09 A3025 RMK A01 T01640092  RH  062%=      5-min Rain = 0
KAM1 121342Z 01012KT 16/09 A3026 RMK A01 T01640094  RH  063%=      5-min Rain = 0
KAM1 121343Z 01011KT 16/09 A3026 RMK A01 T01640094  RH  063%=      5-min Rain = 0
KAM1 121344Z 01015KT 17/09 A3026 RMK A01 T01650091  RH  062%=      5-min Rain = 0
KAM1 121345Z 02012G17KT 16/09 A3026 RMK A01 T01640089  RH  061%=      5-min Rain = 0
KAM1 121346Z 02013KT 16/09 A3026 RMK A01 T01630090  RH  062%=      5-min Rain = 0
KAM1 121347Z 01012KT 16/09 A3026 RMK A01 T01630092  RH  063%=      5-min Rain = 0
KAM1 121348Z 01014KT 16/09 A3026 RMK A01 T01630091  RH  063%=      5-min Rain = 0
KAM1 121349Z 01014KT 16/09 A3026 RMK A01 T01630089  RH  062%=      5-min Rain = 0
KAM1 121350Z 02013KT 16/09 A3026 RMK A01 T01620090  RH  062%=      5-min Rain = 0
KAM1 121351Z 03016KT 16/09 A3026 RMK A01 T01620087  RH  061%=      5-min Rain = 0
KAM1 121352Z 03017KT 16/09 A3027 RMK A01 T01620087  RH  061%=      5-min Rain = 0
KAM1 121353Z 02015KT 16/09 A3027 RMK A01 T01620087  RH  061%=      5-min Rain = 0
KAM1 121354Z 02015KT 16/09 A3027 RMK A01 T01630086  RH  060%=      5-min Rain = 0
KAM1 121355Z 02013KT 16/09 A3027 RMK A01 T01630086  RH  060%=      5-min Rain = 0
KAM1 121356Z 01015KT 16/09 A3027 RMK A01 T01630086  RH  060%=      5-min Rain = 0
KAM1 121357Z 01016KT 17/09 A3027 RMK A01 T01650086  RH  059%=      5-min Rain = 0
KAM1 121358Z 02013G18KT 17/09 A3027 RMK A01 T01670086  RH  059%=      5-min Rain = 0
KAM1 121359Z 02012G17KT 17/09 A3027 RMK A01 T01690091  RH  060%=      5-min Rain = 0
KAM1 121400Z 01013KT 17/09 A3027 RMK A01 T01710093  RH  060%=      5-min Rain = 0
KAM1 121401Z 02017KT 17/09 A3027 RMK A01 T01730089  RH  058%=      5-min Rain = 0
KAM1 121402Z 02016KT 17/09 A3027 RMK A01 T01720088  RH  058%=      5-min Rain = 0
KAM1 121403Z 01012KT 17/09 A3027 RMK A01 T01720091  RH  059%=      5-min Rain = 0
KAM1 121404Z 02011KT 17/09 A3027 RMK A01 T01720091  RH  059%=      5-min Rain = 0
KAM1 121405Z 02013KT 17/09 A3027 RMK A01 T01730093  RH  059%=      5-min Rain = 0
KAM1 121406Z 02014KT 17/09 A3027 RMK A01 T01740094  RH  059%=      5-min Rain = 0
KAM1 121407Z 01013KT 18/09 A3027 RMK A01 T01750090  RH  058%=      5-min Rain = 0
KAM1 121408Z 02014KT 18/09 A3027 RMK A01 T01750090  RH  058%=      5-min Rain = 0
KAM1 121409Z 02014KT 17/09 A3027 RMK A01 T01740089  RH  057%=      5-min Rain = 0
KAM1 121410Z 02015KT 17/09 A3027 RMK A01 T01740086  RH  056%=      5-min Rain = 0
KAM1 121411Z 01011KT 17/09 A3027 RMK A01 T01730091  RH  058%=      5-min Rain = 0
KAM1 121412Z 01011KT 18/09 A3027 RMK A01 T01750094  RH  059%=      5-min Rain = 0
KAM1 121413Z 01014KT 18/09 A3027 RMK A01 T01760090  RH  057%=      5-min Rain = 0
KAM1 121414Z 01017KT 18/09 A3027 RMK A01 T01750088  RH  057%=      5-min Rain = 0
KAM1 121415Z 01014KT 17/09 A3027 RMK A01 T01740087  RH  057%=      5-min Rain = 0
KAM1 121416Z 02013KT 17/09 A3028 RMK A01 T01730088  RH  057%=      5-min Rain = 0
KAM1 121417Z 02014KT 17/09 A3028 RMK A01 T01740087  RH  057%=      5-min Rain = 0
KAM1 121418Z 02012KT 17/09 A3028 RMK A01 T01740086  RH  056%=      5-min Rain = 0
KAM1 121419Z 02013KT 17/09 A3028 RMK A01 T01740089  RH  058%=      5-min Rain = 0
KAM1 121420Z 01013KT 17/09 A3028 RMK A01 T01740090  RH  058%=      5-min Rain = 0
KAM1 121421Z 01013KT 17/09 A3028 RMK A01 T01740088  RH  057%=      5-min Rain = 0
KAM1 121422Z 01013KT 17/09 A3028 RMK A01 T01720088  RH  058%=      5-min Rain = 0
KAM1 121423Z 02015KT 17/09 A3028 RMK A01 T01700086  RH  058%=      5-min Rain = 0
KAM1 121424Z 01010KT 17/09 A3028 RMK A01 T01690088  RH  059%=      5-min Rain = 0
KAM1 121425Z 01013KT 17/09 A3028 RMK A01 T01690088  RH  059%=      5-min Rain = 0
KAM1 121426Z 00013KT 17/09 A3028 RMK A01 T01690087  RH  058%=      5-min Rain = 0
KAM1 121427Z 01012KT 17/09 A3028 RMK A01 T01690088  RH  058%=      5-min Rain = 0
KAM1 121428Z 01013KT 17/09 A3028 RMK A01 T01710090  RH  059%=      5-min Rain = 0
KAM1 121429Z 01013KT 17/09 A3027 RMK A01 T01730087  RH  057%=      5-min Rain = 0
KAM1 121430Z 01011KT 17/09 A3028 RMK A01 T01730091  RH  058%=      5-min Rain = 0
KAM1 121431Z 02012KT 17/09 A3027 RMK A01 T01740091  RH  058%=      5-min Rain = 0
KAM1 121432Z 02011KT 18/09 A3027 RMK A01 T01760090  RH  057%=      5-min Rain = 0
KAM1 121433Z 01015KT 18/09 A3027 RMK A01 T01770090  RH  057%=      5-min Rain = 0
KAM1 121434Z 02014KT 18/09 A3027 RMK A01 T01770089  RH  056%=      5-min Rain = 0
KAM1 121435Z 01016KT 18/09 A3027 RMK A01 T01770088  RH  056%=      5-min Rain = 0
KAM1 121436Z 01013G18KT 18/09 A3027 RMK A01 T01790087  RH  055%=      5-min Rain = 0
KAM1 121437Z 01014KT 18/09 A3027 RMK A01 T01790089  RH  056%=      5-min Rain = 0
KAM1 121438Z 01017KT 18/09 A3028 RMK A01 T01810088  RH  055%=      5-min Rain = 0
KAM1 121439Z 02014G19KT 18/09 A3028 RMK A01 T01810085  RH  054%=      5-min Rain = 0
KAM1 121440Z 02015KT 18/09 A3028 RMK A01 T01810088  RH  054%=      5-min Rain = 0
KAM1 121441Z 02013KT 18/09 A3028 RMK A01 T01820090  RH  055%=      5-min Rain = 0
KAM1 121442Z 01012KT 18/09 A3028 RMK A01 T01840093  RH  055%=      5-min Rain = 0
KAM1 121443Z 02015KT 19/09 A3028 RMK A01 T01860092  RH  055%=      5-min Rain = 0
KAM1 121444Z 01016KT 19/09 A3028 RMK A01 T01860090  RH  053%=      5-min Rain = 0
KAM1 121445Z 01015KT 19/09 A3028 RMK A01 T01860086  RH  052%=      5-min Rain = 0
KAM1 121446Z 02013KT 19/09 A3028 RMK A01 T01850090  RH  054%=      5-min Rain = 0
KAM1 121447Z 02013KT 19/09 A3028 RMK A01 T01860092  RH  054%=      5-min Rain = 0
KAM1 121448Z 01015G20KT 19/09 A3028 RMK A01 T01870092  RH  054%=      5-min Rain = 0
KAM1 121449Z 01018KT 19/09 A3028 RMK A01 T01850085  RH  052%=      5-min Rain = 0
KAM1 121450Z 02016KT 18/08 A3028 RMK A01 T01830084  RH  052%=      5-min Rain = 0
KAM1 121451Z 01015KT 18/09 A3028 RMK A01 T01820085  RH  053%=      5-min Rain = 0
KAM1 121452Z 01014KT 18/09 A3028 RMK A01 T01800085  RH  053%=      5-min Rain = 0
KAM1 121453Z 02014KT 18/09 A3028 RMK A01 T01800089  RH  055%=      5-min Rain = 0
KAM1 121454Z 02016KT 18/09 A3029 RMK A01 T01810087  RH  054%=      5-min Rain = 0
KAM1 121455Z 01015KT 18/09 A3029 RMK A01 T01800085  RH  054%=      5-min Rain = 0
KAM1 121456Z 01014KT 18/09 A3029 RMK A01 T01790086  RH  054%=      5-min Rain = 0
KAM1 121457Z 01013KT 18/09 A3029 RMK A01 T01790087  RH  055%=      5-min Rain = 0
KAM1 121458Z 01011KT 18/09 A3029 RMK A01 T01790091  RH  056%=      5-min Rain = 0
KAM1 121459Z 00011KT 18/09 A3028 RMK A01 T01790089  RH  056%=      5-min Rain = 0
KAM1 121500Z 01012KT 18/09 A3028 RMK A01 T01800088  RH  055%=      5-min Rain = 0
KAM1 121501Z 02012KT 18/09 A3028 RMK A01 T01790088  RH  055%=      5-min Rain = 0
KAM1 121502Z 02013KT 18/09 A3028 RMK A01 T01800089  RH  055%=      5-min Rain = 0
KAM1 121503Z 03014KT 18/09 A3028 RMK A01 T01800086  RH  054%=      5-min Rain = 0
KAM1 121504Z 01014KT 18/08 A3029 RMK A01 T01790084  RH  054%=      5-min Rain = 0
KAM1 121505Z 01013KT 18/09 A3029 RMK A01 T01790085  RH  054%=      5-min Rain = 0
KAM1 121506Z 02014KT 18/09 A3029 RMK A01 T01800088  RH  055%=      5-min Rain = 0
KAM1 121507Z 01014KT 18/09 A3029 RMK A01 T01800085  RH  054%=      5-min Rain = 0
KAM1 121508Z 01016KT 18/09 A3029 RMK A01 T01800086  RH  054%=      5-min Rain = 0
KAM1 121509Z 01017KT 18/08 A3029 RMK A01 T01800084  RH  053%=      5-min Rain = 0
KAM1 121510Z 01012KT 18/09 A3028 RMK A01 T01790086  RH  054%=      5-min Rain = 0
KAM1 121511Z 01011KT 18/09 A3028 RMK A01 T01800090  RH  056%=      5-min Rain = 0
KAM1 121512Z 02012KT 18/09 A3028 RMK A01 T01820094  RH  056%=      5-min Rain = 0
KAM1 121513Z 02012KT 18/09 A3028 RMK A01 T01840090  RH  054%=      5-min Rain = 0
KAM1 121514Z 02015KT 18/09 A3028 RMK A01 T01840088  RH  054%=      5-min Rain = 0
KAM1 121515Z 02016KT 18/09 A3028 RMK A01 T01830086  RH  053%=      5-min Rain = 0
KAM1 121516Z 01012KT 18/09 A3029 RMK A01 T01820089  RH  055%=      5-min Rain = 0
KAM1 121517Z 00013KT 18/09 A3029 RMK A01 T01820089  RH  055%=      5-min Rain = 0
KAM1 121518Z 01014KT 18/09 A3029 RMK A01 T01810085  RH  053%=      5-min Rain = 0
KAM1 121519Z 01013G19KT 18/09 A3029 RMK A01 T01810089  RH  055%=      5-min Rain = 0
KAM1 121520Z 02014KT 18/09 A3029 RMK A01 T01810089  RH  055%=      5-min Rain = 0
KAM1 121521Z 01011KT 18/09 A3029 RMK A01 T01810088  RH  055%=      5-min Rain = 0
KAM1 121522Z 01010KT 18/09 A3029 RMK A01 T01810093  RH  056%=      5-min Rain = 0
KAM1 121523Z 01011KT 18/10 A3029 RMK A01 T01820095  RH  057%=      5-min Rain = 0
KAM1 121524Z 00013KT 18/09 A3029 RMK A01 T01830094  RH  056%=      5-min Rain = 0
KAM1 121525Z 00014KT 18/09 A3029 RMK A01 T01830092  RH  055%=      5-min Rain = 0
KAM1 121526Z 01012KT 18/09 A3029 RMK A01 T01820092  RH  056%=      5-min Rain = 0
KAM1 121527Z 01011KT 18/09 A3029 RMK A01 T01820093  RH  056%=      5-min Rain = 0
KAM1 121528Z 01013KT 18/09 A3029 RMK A01 T01820092  RH  056%=      5-min Rain = 0
KAM1 121529Z 02014KT 18/09 A3029 RMK A01 T01820091  RH  055%=      5-min Rain = 0
KAM1 121530Z 01012KT 18/09 A3029 RMK A01 T01820089  RH  054%=      5-min Rain = 0
KAM1 121531Z 02012KT 18/09 A3029 RMK A01 T01820087  RH  054%=      5-min Rain = 0
KAM1 121532Z 01010KT 18/09 A3029 RMK A01 T01820090  RH  055%=      5-min Rain = 0
KAM1 121533Z 02013KT 18/09 A3029 RMK A01 T01830091  RH  055%=      5-min Rain = 0
KAM1 121534Z 01012G17KT 18/09 A3029 RMK A01 T01840088  RH  053%=      5-min Rain = 0
KAM1 121535Z 36014KT 19/09 A3029 RMK A01 T01850085  RH  052%=      5-min Rain = 0
KAM1 121536Z 00014KT 19/08 A3029 RMK A01 T01850083  RH  051%=      5-min Rain = 0
KAM1 121537Z 00013G20KT 19/09 A3029 RMK A01 T01850085  RH  052%=      5-min Rain = 0
KAM1 121538Z 01017KT 19/08 A3029 RMK A01 T01850081  RH  050%=      5-min Rain = 0
KAM1 121539Z 02015KT 19/08 A3029 RMK A01 T01860077  RH  049%=      5-min Rain = 0
KAM1 121540Z 02013G18KT 19/08 A3029 RMK A01 T01860081  RH  050%=      5-min Rain = 0
KAM1 121541Z 02013KT 19/08 A3028 RMK A01 T01850084  RH  051%=      5-min Rain = 0
KAM1 121542Z 02015KT 19/08 A3028 RMK A01 T01850084  RH  052%=      5-min Rain = 0
KAM1 121543Z 01012G17KT 19/09 A3028 RMK A01 T01860086  RH  052%=      5-min Rain = 0
KAM1 121544Z 00014KT 19/09 A3028 RMK A01 T01860085  RH  052%=      5-min Rain = 0
KAM1 121545Z 36012KT 19/08 A3028 RMK A01 T01850084  RH  052%=      5-min Rain = 0
KAM1 121546Z 00012KT 19/09 A3028 RMK A01 T01860086  RH  052%=      5-min Rain = 0
KAM1 121547Z 01012G17KT 19/09 A3028 RMK A01 T01860086  RH  052%=      5-min Rain = 0
KAM1 121548Z 02015G20KT 19/09 A3028 RMK A01 T01880087  RH  052%=      5-min Rain = 0
KAM1 121549Z 02014KT 19/08 A3028 RMK A01 T01890082  RH  050%=      5-min Rain = 0
KAM1 121550Z 02013G20KT 19/08 A3028 RMK A01 T01880082  RH  050%=      5-min Rain = 0
KAM1 121551Z 01015G20KT 19/08 A3028 RMK A01 T01870081  RH  050%=      5-min Rain = 0
KAM1 121552Z 02011KT 19/09 A3028 RMK A01 T01880085  RH  051%=      5-min Rain = 0
KAM1 121553Z 02012KT 19/09 A3028 RMK A01 T01890087  RH  051%=      5-min Rain = 0
KAM1 121554Z 01013KT 19/09 A3028 RMK A01 T01890086  RH  051%=      5-min Rain = 0
KAM1 121555Z 01013KT 19/09 A3028 RMK A01 T01890087  RH  052%=      5-min Rain = 0
KAM1 121556Z 00013G18KT 19/09 A3028 RMK A01 T01880087  RH  052%=      5-min Rain = 0
KAM1 121557Z 36013KT 19/08 A3028 RMK A01 T01880081  RH  050%=      5-min Rain = 0
KAM1 121558Z 01012G18KT 19/08 A3028 RMK A01 T01860083  RH  051%=      5-min Rain = 0
KAM1 121559Z 01017KT 19/08 A3028 RMK A01 T01860083  RH  051%=      5-min Rain = 0
KAM1 121600Z 02015KT 19/08 A3029 RMK A01 T01860081  RH  050%=      5-min Rain = 0
KAM1 121601Z 01012KT 19/08 A3029 RMK A01 T01860082  RH  051%=      5-min Rain = 0
KAM1 121602Z 02011KT 19/08 A3029 RMK A01 T01860083  RH  051%=      5-min Rain = 0
KAM1 121603Z 02010KT 19/09 A3029 RMK A01 T01850085  RH  052%=      5-min Rain = 0
KAM1 121604Z 02012KT 19/09 A3029 RMK A01 T01850085  RH  052%=      5-min Rain = 0
KAM1 121605Z 01013G18KT 19/09 A3028 RMK A01 T01860086  RH  052%=      5-min Rain = 0
KAM1 121606Z 02015KT 19/08 A3028 RMK A01 T01870084  RH  051%=      5-min Rain = 0
KAM1 121607Z 00015KT 19/08 A3029 RMK A01 T01890083  RH  050%=      5-min Rain = 0
KAM1 121608Z 01013KT 19/09 A3029 RMK A01 T01900086  RH  051%=      5-min Rain = 0
KAM1 121609Z 00013KT 19/09 A3029 RMK A01 T01920088  RH  051%=      5-min Rain = 0
KAM1 121610Z 01012G17KT 19/09 A3029 RMK A01 T01930090  RH  051%=      5-min Rain = 0
KAM1 121611Z 02011KT 20/09 A3028 RMK A01 T01950086  RH  049%=      5-min Rain = 0
KAM1 121612Z 01010KT 20/09 A3028 RMK A01 T01960093  RH  051%=      5-min Rain = 0
KAM1 121613Z 00013KT 20/09 A3028 RMK A01 T01990092  RH  050%=      5-min Rain = 0
KAM1 121614Z 01009KT 20/09 A3028 RMK A01 T02010094  RH  050%=      5-min Rain = 0
KAM1 121615Z 02016KT 20/10 A3028 RMK A01 T02040098  RH  051%=      5-min Rain = 0
KAM1 121616Z 01016KT 21/09 A3028 RMK A01 T02060087  RH  046%=      5-min Rain = 0
KAM1 121617Z 01014KT 21/09 A3028 RMK A01 T02050088  RH  047%=      5-min Rain = 0
KAM1 121618Z 01011KT 20/09 A3028 RMK A01 T02040085  RH  046%=      5-min Rain = 0
KAM1 121619Z 03012KT 20/09 A3028 RMK A01 T02040093  RH  049%=      5-min Rain = 0
KAM1 121620Z 03012KT 21/09 A3028 RMK A01 T02050087  RH  047%=      5-min Rain = 0
KAM1 121621Z 02012KT 21/09 A3028 RMK A01 T02060090  RH  047%=      5-min Rain = 0
KAM1 121622Z 00014KT 21/09 A3028 RMK A01 T02080089  RH  046%=      5-min Rain = 0
KAM1 121623Z 35012G17KT 21/09 A3028 RMK A01 T02070091  RH  047%=      5-min Rain = 0
KAM1 121624Z 01015KT 21/09 A3028 RMK A01 T02070091  RH  047%=      5-min Rain = 0
KAM1 121625Z 02012KT 21/09 A3028 RMK A01 T02080089  RH  046%=      5-min Rain = 0
KAM1 121626Z 02014KT 21/09 A3028 RMK A01 T02080088  RH  046%=      5-min Rain = 0
KAM1 121627Z 03015KT 21/09 A3029 RMK A01 T02080087  RH  046%=      5-min Rain = 0
KAM1 121628Z 02015KT 21/08 A3028 RMK A01 T02080084  RH  045%=      5-min Rain = 0
KAM1 121629Z 03014KT 21/08 A3029 RMK A01 T02060082  RH  045%=      5-min Rain = 0
KAM1 121630Z 01009KT 21/09 A3028 RMK A01 T02050088  RH  047%=      5-min Rain = 0
KAM1 121631Z 02010KT 21/09 A3028 RMK A01 T02060088  RH  047%=      5-min Rain = 0
KAM1 121632Z 01012KT 21/09 A3028 RMK A01 T02060087  RH  047%=      5-min Rain = 0
KAM1 121633Z 01014KT 21/09 A3028 RMK A01 T02070089  RH  047%=      5-min Rain = 0
KAM1 121634Z 36014KT 21/09 A3028 RMK A01 T02090089  RH  046%=      5-min Rain = 0
KAM1 121635Z 02012KT 21/09 A3028 RMK A01 T02100087  RH  045%=      5-min Rain = 0
KAM1 121636Z 03011KT 21/09 A3028 RMK A01 T02110091  RH  046%=      5-min Rain = 0
KAM1 121637Z 04012KT 21/09 A3028 RMK A01 T02120089  RH  045%=      5-min Rain = 0
KAM1 121638Z 01016G21KT 21/09 A3028 RMK A01 T02130087  RH  044%=      5-min Rain = 0
KAM1 121639Z 36012KT 21/09 A3028 RMK A01 T02120088  RH  045%=      5-min Rain = 0
KAM1 121640Z 02012KT 21/08 A3028 RMK A01 T02100082  RH  044%=      5-min Rain = 0
KAM1 121641Z 02013KT 21/09 A3028 RMK A01 T02090086  RH  045%=      5-min Rain = 0
KAM1 121642Z 03014KT 21/08 A3028 RMK A01 T02090081  RH  044%=      5-min Rain = 0
KAM1 121643Z 04016G21KT 21/08 A3028 RMK A01 T02090078  RH  043%=      5-min Rain = 0
KAM1 121644Z 03013KT 21/08 A3028 RMK A01 T02080081  RH  044%=      5-min Rain = 0
KAM1 121645Z 04009KT 21/09 A3028 RMK A01 T02090085  RH  045%=      5-min Rain = 0
KAM1 121646Z 03009KT 21/09 A3028 RMK A01 T02110091  RH  046%=      5-min Rain = 0
KAM1 121647Z 03011G16KT 21/09 A3028 RMK A01 T02140093  RH  046%=      5-min Rain = 0
KAM1 121648Z 03013KT 22/09 A3028 RMK A01 T02160089  RH  044%=      5-min Rain = 0
KAM1 121649Z 04014G19KT 22/09 A3028 RMK A01 T02160086  RH  043%=      5-min Rain = 0
KAM1 121650Z 05014KT 21/08 A3028 RMK A01 T02140081  RH  042%=      5-min Rain = 0
KAM1 121651Z 04012KT 21/09 A3028 RMK A01 T02130085  RH  044%=      5-min Rain = 0
KAM1 121652Z 01011KT 21/09 A3028 RMK A01 T02140088  RH  044%=      5-min Rain = 0
KAM1 121653Z 02013G21KT 22/09 A3028 RMK A01 T02150086  RH  044%=      5-min Rain = 0
KAM1 121654Z 04011KT 22/09 A3028 RMK A01 T02170093  RH  045%=      5-min Rain = 0
KAM1 121655Z 03010KT 22/09 A3028 RMK A01 T02180090  RH  044%=      5-min Rain = 0
KAM1 121656Z 02013G18KT 22/09 A3028 RMK A01 T02190091  RH  044%=      5-min Rain = 0
KAM1 121657Z 02016KT 22/08 A3028 RMK A01 T02180083  RH  042%=      5-min Rain = 0
KAM1 121658Z 02012KT 22/09 A3029 RMK A01 T02150085  RH  043%=      5-min Rain = 0
KAM1 121659Z 03010KT 21/08 A3029 RMK A01 T02140079  RH  042%=      5-min Rain = 0
KAM1 121700Z 02014KT 21/08 A3029 RMK A01 T02120082  RH  043%=      5-min Rain = 0
KAM1 121701Z 02013KT 21/09 A3029 RMK A01 T02120085  RH  044%=      5-min Rain = 0
KAM1 121702Z 01015KT 21/09 A3029 RMK A01 T02120085  RH  044%=      5-min Rain = 0
KAM1 121703Z 00014KT 21/08 A3028 RMK A01 T02120079  RH  042%=      5-min Rain = 0
KAM1 121704Z 36014KT 21/08 A3028 RMK A01 T02090081  RH  044%=      5-min Rain = 0
KAM1 121705Z 00013KT 21/09 A3028 RMK A01 T02100087  RH  045%=      5-min Rain = 0
KAM1 121706Z 03014KT 21/09 A3028 RMK A01 T02110085  RH  044%=      5-min Rain = 0
KAM1 121707Z 02011KT 21/08 A3028 RMK A01 T02120081  RH  043%=      5-min Rain = 0
KAM1 121708Z 02011KT 21/09 A3028 RMK A01 T02120085  RH  044%=      5-min Rain = 0
KAM1 121709Z 03013KT 21/09 A3028 RMK A01 T02130087  RH  044%=      5-min Rain = 0
KAM1 121710Z 01015KT 21/08 A3028 RMK A01 T02140084  RH  043%=      5-min Rain = 0
KAM1 121711Z 01011KT 21/08 A3028 RMK A01 T02140084  RH  043%=      5-min Rain = 0
KAM1 121712Z 01012KT 21/08 A3028 RMK A01 T02130082  RH  043%=      5-min Rain = 0
KAM1 121713Z 01011KT 21/08 A3028 RMK A01 T02130083  RH  043%=      5-min Rain = 0
KAM1 121714Z 02012KT 21/08 A3028 RMK A01 T02130082  RH  043%=      5-min Rain = 0
KAM1 121715Z 01014KT 21/08 A3028 RMK A01 T02130084  RH  043%=      5-min Rain = 0
KAM1 121716Z 03009KT 21/08 A3028 RMK A01 T02130083  RH  043%=      5-min Rain = 0
KAM1 121717Z 02010G15KT 21/09 A3028 RMK A01 T02140087  RH  044%=      5-min Rain = 0
KAM1 121718Z 02012KT 22/08 A3028 RMK A01 T02150084  RH  043%=      5-min Rain = 0
KAM1 121719Z 02007KT 21/09 A3028 RMK A01 T02140085  RH  044%=      5-min Rain = 0
KAM1 121720Z 02009KT 21/09 A3028 RMK A01 T02140088  RH  044%=      5-min Rain = 0
KAM1 121721Z 03009G15KT 22/09 A3028 RMK A01 T02150090  RH  045%=      5-min Rain = 0
KAM1 121722Z 03013KT 22/09 A3029 RMK A01 T02170086  RH  043%=      5-min Rain = 0
KAM1 121723Z 02011KT 22/08 A3029 RMK A01 T02170083  RH  042%=      5-min Rain = 0
KAM1 121724Z 03008KT 22/08 A3028 RMK A01 T02160083  RH  042%=      5-min Rain = 0
KAM1 121725Z 02008KT 22/08 A3028 RMK A01 T02150081  RH  042%=      5-min Rain = 0
KAM1 121726Z 02009G15KT 21/09 A3028 RMK A01 T02140086  RH  044%=      5-min Rain = 0
KAM1 121727Z 03012KT 22/09 A3028 RMK A01 T02170087  RH  043%=      5-min Rain = 0
KAM1 121728Z 02012KT 22/08 A3028 RMK A01 T02200084  RH  042%=      5-min Rain = 0
KAM1 121729Z 01014KT 22/08 A3028 RMK A01 T02200083  RH  041%=      5-min Rain = 0
KAM1 121730Z 04012KT 22/09 A3028 RMK A01 T02210086  RH  042%=      5-min Rain = 0
KAM1 121731Z 03013KT 22/09 A3028 RMK A01 T02220087  RH  042%=      5-min Rain = 0
KAM1 121732Z 03014KT 22/08 A3028 RMK A01 T02230083  RH  041%=      5-min Rain = 0
KAM1 121733Z 03010KT 22/08 A3028 RMK A01 T02220079  RH  040%=      5-min Rain = 0
KAM1 121734Z 03008KT 22/09 A3028 RMK A01 T02210088  RH  043%=      5-min Rain = 0
KAM1 121735Z 01011KT 22/09 A3028 RMK A01 T02230089  RH  042%=      5-min Rain = 0
KAM1 121736Z 02018KT 22/08 A3028 RMK A01 T02240082  RH  040%=      5-min Rain = 0
KAM1 121737Z 02015G20KT 22/08 A3028 RMK A01 T02230083  RH  040%=      5-min Rain = 0
KAM1 121738Z 03013KT 22/08 A3028 RMK A01 T02220078  RH  040%=      5-min Rain = 0
KAM1 121739Z 02010KT 22/09 A3028 RMK A01 T02200085  RH  042%=      5-min Rain = 0
KAM1 121740Z 03012KT 22/08 A3028 RMK A01 T02210083  RH  041%=      5-min Rain = 0
KAM1 121741Z 04013KT 22/08 A3028 RMK A01 T02200077  RH  040%=      5-min Rain = 0
KAM1 121742Z 03011KT 22/08 A3028 RMK A01 T02190078  RH  040%=      5-min Rain = 0
KAM1 121743Z 02011KT 22/08 A3028 RMK A01 T02180078  RH  041%=      5-min Rain = 0
KAM1 121744Z 02013KT 22/08 A3028 RMK A01 T02170076  RH  040%=      5-min Rain = 0
KAM1 121745Z 03014KT 22/08 A3028 RMK A01 T02160078  RH  041%=      5-min Rain = 0
KAM1 121746Z 02013KT 22/08 A3028 RMK A01 T02180077  RH  040%=      5-min Rain = 0
KAM1 121747Z 01014KT 22/08 A3028 RMK A01 T02180083  RH  042%=      5-min Rain = 0
KAM1 121748Z 02015KT 22/08 A3028 RMK A01 T02190084  RH  042%=      5-min Rain = 0
KAM1 121749Z 01012KT 22/08 A3028 RMK A01 T02190081  RH  041%=      5-min Rain = 0
KAM1 121750Z 36012KT 22/08 A3028 RMK A01 T02190083  RH  042%=      5-min Rain = 0
KAM1 121751Z 36011KT 22/09 A3028 RMK A01 T02190088  RH  043%=      5-min Rain = 0
KAM1 121752Z 35011KT 22/08 A3028 RMK A01 T02200082  RH  041%=      5-min Rain = 0
KAM1 121753Z 00010KT 22/08 A3028 RMK A01 T02200084  RH  042%=      5-min Rain = 0
KAM1 121754Z 01012G19KT 22/09 A3028 RMK A01 T02200085  RH  042%=      5-min Rain = 0
KAM1 121755Z 01015KT 22/08 A3028 RMK A01 T02210081  RH  041%=      5-min Rain = 0
KAM1 121756Z 01011KT 22/09 A3028 RMK A01 T02220085  RH  041%=      5-min Rain = 0
KAM1 121757Z 02014KT 22/08 A3028 RMK A01 T02230082  RH  040%=      5-min Rain = 0
KAM1 121758Z 02012KT 22/08 A3028 RMK A01 T02220081  RH  040%=      5-min Rain = 0
KAM1 121759Z 02009KT 22/08 A3028 RMK A01 T02210078  RH  040%=      5-min Rain = 0
KAM1 121800Z 01008KT 22/08 A3028 RMK A01 T02190081  RH  041%=      5-min Rain = 0
KAM1 121801Z 03005KT 22/08 A3028 RMK A01 T02200083  RH  041%=      5-min Rain = 0
KAM1 121802Z 01009G15KT 22/09 A3027 RMK A01 T02230093  RH  044%=      5-min Rain = 0
KAM1 121803Z 02014KT 23/09 A3028 RMK A01 T02250087  RH  041%=      5-min Rain = 0
KAM1 121804Z 02010KT 22/08 A3028 RMK A01 T02240080  RH  040%=      5-min Rain = 0
KAM1 121805Z 03010G15KT 22/08 A3027 RMK A01 T02210082  RH  041%=      5-min Rain = 0
KAM1 121806Z 04007KT 22/08 A3027 RMK A01 T02200080  RH  041%=      5-min Rain = 0
KAM1 121807Z 02005KT 22/08 A3027 RMK A01 T02180075  RH  040%=      5-min Rain = 0
KAM1 121808Z 01007G12KT 22/09 A3027 RMK A01 T02170086  RH  043%=      5-min Rain = 0
KAM1 121809Z 01014KT 22/09 A3027 RMK A01 T02200085  RH  042%=      5-min Rain = 0
KAM1 121810Z 36012G17KT 22/08 A3027 RMK A01 T02210082  RH  041%=      5-min Rain = 0
KAM1 121811Z 36011KT 22/09 A3027 RMK A01 T02220088  RH  042%=      5-min Rain = 0
KAM1 121812Z 36009KT 22/09 A3027 RMK A01 T02230086  RH  041%=      5-min Rain = 0
KAM1 121813Z 03012KT 23/09 A3027 RMK A01 T02250094  RH  043%=      5-min Rain = 0
KAM1 121814Z 02015KT 23/09 A3027 RMK A01 T02280088  RH  041%=      5-min Rain = 0
KAM1 121815Z 02016KT 23/09 A3027 RMK A01 T02280087  RH  041%=      5-min Rain = 0
KAM1 121816Z 02014KT 23/08 A3027 RMK A01 T02270081  RH  039%=      5-min Rain = 0
KAM1 121817Z 03009KT 22/08 A3027 RMK A01 T02240081  RH  040%=      5-min Rain = 0
KAM1 121818Z 01013KT 22/08 A3027 RMK A01 T02230081  RH  040%=      5-min Rain = 0
KAM1 121819Z 01012KT 22/08 A3027 RMK A01 T02230084  RH  041%=      5-min Rain = 0
KAM1 121820Z 02013KT 22/09 A3027 RMK A01 T02240088  RH  042%=      5-min Rain = 0
KAM1 121821Z 02014KT 23/08 A3027 RMK A01 T02260084  RH  040%=      5-min Rain = 0
KAM1 121822Z 01010KT 23/09 A3027 RMK A01 T02260085  RH  040%=      5-min Rain = 0
KAM1 121823Z 01008KT 23/09 A3027 RMK A01 T02250085  RH  041%=      5-min Rain = 0
KAM1 121824Z 03014KT 23/09 A3027 RMK A01 T02260089  RH  042%=      5-min Rain = 0
KAM1 121825Z 02011G18KT 23/09 A3027 RMK A01 T02280092  RH  042%=      5-min Rain = 0
KAM1 121826Z 02013KT 23/09 A3027 RMK A01 T02300089  RH  040%=      5-min Rain = 0
KAM1 121827Z 02011KT 23/08 A3027 RMK A01 T02290083  RH  039%=      5-min Rain = 0
KAM1 121828Z 02011KT 23/08 A3027 RMK A01 T02260081  RH  040%=      5-min Rain = 0
KAM1 121829Z 02010KT 23/09 A3027 RMK A01 T02250091  RH  042%=      5-min Rain = 0
KAM1 121830Z 02009KT 23/09 A3027 RMK A01 T02260089  RH  041%=      5-min Rain = 0
KAM1 121831Z 03008KT 23/09 A3027 RMK A01 T02280091  RH  042%=      5-min Rain = 0
KAM1 121832Z 03009KT 23/09 A3027 RMK A01 T02300092  RH  042%=      5-min Rain = 0
KAM1 121833Z 02011G16KT 23/09 A3027 RMK A01 T02310089  RH  040%=      5-min Rain = 0
KAM1 121834Z 02013KT 23/09 A3027 RMK A01 T02310091  RH  041%=      5-min Rain = 0
KAM1 121835Z 01012KT 23/08 A3027 RMK A01 T02310083  RH  039%=      5-min Rain = 0
KAM1 121836Z 01011KT 23/08 A3027 RMK A01 T02280082  RH  039%=      5-min Rain = 0
KAM1 121837Z 00012KT 23/09 A3027 RMK A01 T02270090  RH  042%=      5-min Rain = 0
KAM1 121838Z 04014KT 23/09 A3027 RMK A01 T02270085  RH  040%=      5-min Rain = 0
KAM1 121839Z 04007KT 23/08 A3026 RMK A01 T02260078  RH  039%=      5-min Rain = 0
KAM1 121840Z 36008KT 22/09 A3026 RMK A01 T02240089  RH  042%=      5-min Rain = 0
KAM1 121841Z 01012KT 23/10 A3026 RMK A01 T02270095  RH  043%=      5-min Rain = 0
KAM1 121842Z 01013KT 23/09 A3026 RMK A01 T02290091  RH  041%=      5-min Rain = 0
KAM1 121843Z 01013KT 23/09 A3026 RMK A01 T02290091  RH  041%=      5-min Rain = 0
KAM1 121844Z 01011KT 23/09 A3026 RMK A01 T02270088  RH  041%=      5-min Rain = 0
KAM1 121845Z 00011KT 23/09 A3026 RMK A01 T02270087  RH  041%=      5-min Rain = 0
KAM1 121846Z 36011KT 23/09 A3026 RMK A01 T02260090  RH  042%=      5-min Rain = 0
KAM1 121847Z 36009KT 23/09 A3026 RMK A01 T02270093  RH  042%=      5-min Rain = 0
KAM1 121848Z 35010KT 23/10 A3026 RMK A01 T02290095  RH  042%=      5-min Rain = 0
KAM1 121849Z 01013KT 23/10 A3026 RMK A01 T02300095  RH  042%=      5-min Rain = 0
KAM1 121850Z 03013KT 23/09 A3026 RMK A01 T02310090  RH  041%=      5-min Rain = 0
KAM1 121851Z 01014KT 23/09 A3026 RMK A01 T02300092  RH  041%=      5-min Rain = 0
KAM1 121852Z 36014KT 23/09 A3026 RMK A01 T02300093  RH  041%=      5-min Rain = 0
KAM1 121853Z 01013KT 23/09 A3026 RMK A01 T02300090  RH  041%=      5-min Rain = 0
KAM1 121854Z 02015KT 23/09 A3026 RMK A01 T02300091  RH  041%=      5-min Rain = 0
KAM1 121855Z 02012KT 23/09 A3026 RMK A01 T02290091  RH  041%=      5-min Rain = 0
KAM1 121856Z 02011KT 23/09 A3026 RMK A01 T02290091  RH  041%=      5-min Rain = 0
KAM1 121857Z 01009KT 23/10 A3026 RMK A01 T02300100  RH  044%=      5-min Rain = 0
KAM1 121858Z 02012G17KT 23/10 A3025 RMK A01 T02330098  RH  042%=      5-min Rain = 0
KAM1 121859Z 02010KT 23/09 A3026 RMK A01 T02340090  RH  040%=      5-min Rain = 0
KAM1 121900Z 03011KT 23/09 A3026 RMK A01 T02330094  RH  041%=      5-min Rain = 0
KAM1 121901Z 00012G20KT 24/10 A3025 RMK A01 T02350095  RH  041%=      5-min Rain = 0
KAM1 121902Z 02016G21KT 24/09 A3025 RMK A01 T02350091  RH  040%=      5-min Rain = 0
KAM1 121903Z 02013KT 23/09 A3025 RMK A01 T02340092  RH  040%=      5-min Rain = 0
KAM1 121904Z 01014G20KT 23/09 A3025 RMK A01 T02340093  RH  041%=      5-min Rain = 0
KAM1 121905Z 02015KT 23/09 A3025 RMK A01 T02330086  RH  039%=      5-min Rain = 0
KAM1 121906Z 03010KT 23/08 A3025 RMK A01 T02300083  RH  039%=      5-min Rain = 0
KAM1 121907Z 36012KT 23/09 A3025 RMK A01 T02290090  RH  041%=      5-min Rain = 0
KAM1 121908Z 00010KT 23/09 A3025 RMK A01 T02280086  RH  040%=      5-min Rain = 0
KAM1 121909Z 34007KT 23/09 A3025 RMK A01 T02280086  RH  040%=      5-min Rain = 0
KAM1 121910Z 00012KT 23/10 A3025 RMK A01 T02280095  RH  043%=      5-min Rain = 0
KAM1 121911Z 03014KT 23/09 A3025 RMK A01 T02310093  RH  041%=      5-min Rain = 0
KAM1 121912Z 02015G20KT 23/09 A3025 RMK A01 T02340090  RH  040%=      5-min Rain = 0
KAM1 121913Z 02014KT 23/09 A3025 RMK A01 T02340092  RH  040%=      5-min Rain = 0
KAM1 121914Z 02012KT 23/09 A3025 RMK A01 T02330086  RH  039%=      5-min Rain = 0
KAM1 121915Z 02009KT 23/09 A3025 RMK A01 T02300085  RH  039%=      5-min Rain = 0
KAM1 121916Z 00011KT 23/09 A3025 RMK A01 T02290091  RH  041%=      5-min Rain = 0
KAM1 121917Z 00011G17KT 23/10 A3025 RMK A01 T02310095  RH  042%=      5-min Rain = 0
KAM1 121918Z 00011KT 23/09 A3025 RMK A01 T02320092  RH  041%=      5-min Rain = 0
KAM1 121919Z 00009KT 23/10 A3025 RMK A01 T02310098  RH  043%=      5-min Rain = 0
KAM1 121920Z 35011KT 23/10 A3025 RMK A01 T02340100  RH  043%=      5-min Rain = 0
KAM1 121921Z 00007KT 24/09 A3025 RMK A01 T02350093  RH  040%=      5-min Rain = 0
KAM1 121922Z 01009KT 23/09 A3025 RMK A01 T02320093  RH  041%=      5-min Rain = 0
KAM1 121923Z 03009KT 23/10 A3025 RMK A01 T02320096  RH  042%=      5-min Rain = 0
KAM1 121924Z 05011KT 23/09 A3025 RMK A01 T02320088  RH  040%=      5-min Rain = 0
KAM1 121925Z 03013KT 24/09 A3025 RMK A01 T02350090  RH  040%=      5-min Rain = 0
KAM1 121926Z 05013KT 24/08 A3025 RMK A01 T02370084  RH  038%=      5-min Rain = 0
KAM1 121927Z 02014KT 24/09 A3025 RMK A01 T02370086  RH  038%=      5-min Rain = 0
KAM1 121928Z 03014KT 24/09 A3025 RMK A01 T02370086  RH  038%=      5-min Rain = 0
KAM1 121929Z 03014KT 24/09 A3025 RMK A01 T02360085  RH  038%=      5-min Rain = 0
KAM1 121930Z 03010KT 24/08 A3025 RMK A01 T02350082  RH  038%=      5-min Rain = 0
KAM1 121931Z 01011KT 23/08 A3025 RMK A01 T02330083  RH  038%=      5-min Rain = 0
KAM1 121932Z 00008G13KT 23/09 A3025 RMK A01 T02320089  RH  040%=      5-min Rain = 0
KAM1 121933Z 01009KT 23/09 A3025 RMK A01 T02330087  RH  039%=      5-min Rain = 0
KAM1 121934Z 02011KT 23/09 A3025 RMK A01 T02330091  RH  040%=      5-min Rain = 0
KAM1 121935Z 02009KT 23/10 A3025 RMK A01 T02340095  RH  041%=      5-min Rain = 0
KAM1 121936Z 00011KT 24/10 A3025 RMK A01 T02360096  RH  041%=      5-min Rain = 0
KAM1 121937Z 35013KT 24/10 A3025 RMK A01 T02370095  RH  040%=      5-min Rain = 0
KAM1 121938Z 01010KT 24/09 A3025 RMK A01 T02370087  RH  039%=      5-min Rain = 0
KAM1 121939Z 02008KT 23/09 A3025 RMK A01 T02330086  RH  039%=      5-min Rain = 0
KAM1 121940Z 01008KT 23/10 A3025 RMK A01 T02330096  RH  042%=      5-min Rain = 0
KAM1 121941Z 34010KT 24/09 A3025 RMK A01 T02350092  RH  040%=      5-min Rain = 0
KAM1 121942Z 35006KT 24/10 A3025 RMK A01 T02350097  RH  042%=      5-min Rain = 0
KAM1 121943Z 01010G15KT 24/10 A3025 RMK A01 T02360098  RH  042%=      5-min Rain = 0
KAM1 121944Z 02011KT 24/10 A3025 RMK A01 T02390098  RH  041%=      5-min Rain = 0
KAM1 121945Z 03010KT 24/09 A3025 RMK A01 T02400088  RH  038%=      5-min Rain = 0
KAM1 121946Z 02010KT 24/09 A3025 RMK A01 T02380092  RH  039%=      5-min Rain = 0
KAM1 121947Z 01011KT 24/09 A3025 RMK A01 T02370089  RH  039%=      5-min Rain = 0
KAM1 121948Z 35011KT 24/09 A3025 RMK A01 T02370086  RH  038%=      5-min Rain = 0
KAM1 121949Z 33010KT 24/09 A3025 RMK A01 T02360093  RH  040%=      5-min Rain = 0
KAM1 121950Z 35011KT 24/09 A3025 RMK A01 T02370090  RH  039%=      5-min Rain = 0
KAM1 121951Z 35011KT 24/09 A3025 RMK A01 T02370090  RH  039%=      5-min Rain = 0
KAM1 121952Z 35009KT 24/10 A3025 RMK A01 T02360095  RH  041%=      5-min Rain = 0
KAM1 121953Z 36008KT 24/10 A3025 RMK A01 T02370104  RH  043%=      5-min Rain = 0
KAM1 121954Z 36012KT 24/10 A3025 RMK A01 T02400099  RH  041%=      5-min Rain = 0
KAM1 121955Z 00010KT 24/10 A3025 RMK A01 T02390095  RH  040%=      5-min Rain = 0
KAM1 121956Z 36011KT 24/10 A3025 RMK A01 T02380096  RH  041%=      5-min Rain = 0
KAM1 121957Z 36010KT 24/10 A3025 RMK A01 T02370099  RH  042%=      5-min Rain = 0
KAM1 121958Z 01007KT 24/09 A3025 RMK A01 T02370092  RH  040%=      5-min Rain = 0
KAM1 121959Z 01004KT 24/09 A3025 RMK A01 T02350087  RH  039%=      5-min Rain = 0
KAM1 122000Z 00007KT 23/09 A3024 RMK A01 T02330092  RH  041%=      5-min Rain = 0
KAM1 122001Z 35009KT 23/09 A3024 RMK A01 T02340091  RH  040%=      5-min Rain = 0
KAM1 122002Z 01010KT 24/10 A3025 RMK A01 T02370100  RH  042%=      5-min Rain = 0
KAM1 122003Z 01010KT 24/10 A3025 RMK A01 T02400097  RH  041%=      5-min Rain = 0
KAM1 122004Z 01011KT 24/09 A3025 RMK A01 T02390094  RH  040%=      5-min Rain = 0
KAM1 122005Z 00008KT 24/09 A3024 RMK A01 T02370092  RH  040%=      5-min Rain = 0
KAM1 122006Z 36009G14KT 24/10 A3024 RMK A01 T02360095  RH  041%=      5-min Rain = 0
KAM1 122007Z 34011KT 24/09 A3024 RMK A01 T02360092  RH  040%=      5-min Rain = 0
KAM1 122008Z 35011KT 24/09 A3024 RMK A01 T02360090  RH  039%=      5-min Rain = 0
KAM1 122009Z 01007KT 24/10 A3024 RMK A01 T02370095  RH  041%=      5-min Rain = 0
KAM1 122010Z 01009KT 24/09 A3024 RMK A01 T02380093  RH  040%=      5-min Rain = 0
KAM1 122011Z 02006KT 24/09 A3024 RMK A01 T02380088  RH  038%=      5-min Rain = 0
KAM1 122012Z 01009KT 24/10 A3024 RMK A01 T02380100  RH  042%=      5-min Rain = 0
KAM1 122013Z 01012KT 24/10 A3024 RMK A01 T02410097  RH  040%=      5-min Rain = 0
KAM1 122014Z 01012KT 24/09 A3024 RMK A01 T02400093  RH  039%=      5-min Rain = 0
KAM1 122015Z 35012KT 24/09 A3024 RMK A01 T02390089  RH  038%=      5-min Rain = 0
KAM1 122016Z 36010KT 24/09 A3024 RMK A01 T02380089  RH  039%=      5-min Rain = 0
KAM1 122017Z 03012KT 24/09 A3024 RMK A01 T02370093  RH  040%=      5-min Rain = 0
KAM1 122018Z 03012KT 24/09 A3024 RMK A01 T02380087  RH  038%=      5-min Rain = 0
KAM1 122019Z 03009KT 24/08 A3024 RMK A01 T02380080  RH  036%=      5-min Rain = 0
KAM1 122020Z 04010KT 24/09 A3024 RMK A01 T02370085  RH  038%=      5-min Rain = 0
KAM1 122021Z 03013KT 24/09 A3024 RMK A01 T02380091  RH  039%=      5-min Rain = 0
KAM1 122022Z 02013KT 24/09 A3024 RMK A01 T02390088  RH  038%=      5-min Rain = 0
KAM1 122023Z 03012KT 24/09 A3024 RMK A01 T02390090  RH  039%=      5-min Rain = 0
KAM1 122024Z 03011KT 24/10 A3024 RMK A01 T02390095  RH  040%=      5-min Rain = 0
KAM1 122025Z 03012KT 24/09 A3024 RMK A01 T02400090  RH  038%=      5-min Rain = 0
KAM1 122026Z 01010KT 24/09 A3024 RMK A01 T02380092  RH  040%=      5-min Rain = 0
KAM1 122027Z 00008KT 24/10 A3024 RMK A01 T02370095  RH  040%=      5-min Rain = 0
KAM1 122028Z 02008KT 24/10 A3024 RMK A01 T02380097  RH  041%=      5-min Rain = 0
KAM1 122029Z 01011KT 24/10 A3024 RMK A01 T02390098  RH  041%=      5-min Rain = 0
KAM1 122030Z 01012KT 24/09 A3024 RMK A01 T02400093  RH  039%=      5-min Rain = 0
KAM1 122031Z 03009KT 24/09 A3024 RMK A01 T02380092  RH  039%=      5-min Rain = 0
KAM1 122032Z 03010KT 24/09 A3024 RMK A01 T02380094  RH  040%=      5-min Rain = 0
KAM1 122033Z 02006KT 24/09 A3024 RMK A01 T02380088  RH  038%=      5-min Rain = 0
KAM1 122034Z 03007KT 24/09 A3024 RMK A01 T02380093  RH  040%=      5-min Rain = 0
KAM1 122035Z 04011G16KT 24/09 A3024 RMK A01 T02390094  RH  040%=      5-min Rain = 0
KAM1 122036Z 35011KT 24/10 A3023 RMK A01 T02410095  RH  040%=      5-min Rain = 0
KAM1 122037Z 34011KT 24/09 A3023 RMK A01 T02420093  RH  039%=      5-min Rain = 0
KAM1 122038Z 01012KT 24/10 A3023 RMK A01 T02420102  RH  041%=      5-min Rain = 0
KAM1 122039Z 02010KT 25/10 A3024 RMK A01 T02450098  RH  039%=      5-min Rain = 0
KAM1 122040Z 02007KT 25/09 A3023 RMK A01 T02450094  RH  038%=      5-min Rain = 0
KAM1 122041Z 02014KT 25/10 A3023 RMK A01 T02450097  RH  039%=      5-min Rain = 0
KAM1 122042Z 03010KT 24/09 A3024 RMK A01 T02440087  RH  037%=      5-min Rain = 0
KAM1 122043Z 02007KT 24/09 A3023 RMK A01 T02410090  RH  038%=      5-min Rain = 0
KAM1 122044Z 36007KT 24/09 A3023 RMK A01 T02410090  RH  038%=      5-min Rain = 0
KAM1 122045Z 01008KT 24/09 A3023 RMK A01 T02400089  RH  038%=      5-min Rain = 0
KAM1 122046Z 04013G20KT 24/09 A3023 RMK A01 T02400087  RH  038%=      5-min Rain = 0
KAM1 122047Z 01015G23KT 24/09 A3023 RMK A01 T02410085  RH  037%=      5-min Rain = 0
KAM1 122048Z 02012KT 24/09 A3023 RMK A01 T02420094  RH  039%=      5-min Rain = 0
KAM1 122049Z 03011KT 24/08 A3023 RMK A01 T02420084  RH  036%=      5-min Rain = 0
KAM1 122050Z 04011KT 24/09 A3023 RMK A01 T02420090  RH  038%=      5-min Rain = 0
KAM1 122051Z 02014KT 24/09 A3023 RMK A01 T02440088  RH  037%=      5-min Rain = 0
KAM1 122052Z 02009KT 24/09 A3023 RMK A01 T02430087  RH  037%=      5-min Rain = 0
KAM1 122053Z 00008KT 24/09 A3023 RMK A01 T02410087  RH  038%=      5-min Rain = 0
KAM1 122054Z 02010KT 24/10 A3023 RMK A01 T02400095  RH  040%=      5-min Rain = 0
KAM1 122055Z 02011G16KT 24/09 A3023 RMK A01 T02410085  RH  037%=      5-min Rain = 0
KAM1 122056Z 03012KT 24/09 A3023 RMK A01 T02400086  RH  037%=      5-min Rain = 0
KAM1 122057Z 01011KT 24/09 A3023 RMK A01 T02400087  RH  038%=      5-min Rain = 0
KAM1 122058Z 01009KT 24/08 A3023 RMK A01 T02390082  RH  037%=      5-min Rain = 0
KAM1 122059Z 03007KT 24/08 A3023 RMK A01 T02380081  RH  037%=      5-min Rain = 0
KAM1 122100Z 36010G15KT 24/09 A3023 RMK A01 T02380089  RH  039%=      5-min Rain = 0
KAM1 122101Z 34011KT 24/09 A3023 RMK A01 T02400089  RH  038%=      5-min Rain = 0
KAM1 122102Z 34007KT 24/09 A3023 RMK A01 T02410085  RH  037%=      5-min Rain = 0
KAM1 122103Z 01010KT 24/09 A3023 RMK A01 T02410093  RH  039%=      5-min Rain = 0
KAM1 122104Z 02007KT 24/08 A3023 RMK A01 T02420084  RH  036%=      5-min Rain = 0
KAM1 122105Z 02007KT 24/09 A3023 RMK A01 T02420088  RH  037%=      5-min Rain = 0
KAM1 122106Z 36007KT 24/09 A3023 RMK A01 T02420093  RH  039%=      5-min Rain = 0
KAM1 122107Z 00007KT 24/08 A3023 RMK A01 T02420083  RH  036%=      5-min Rain = 0
KAM1 122108Z 36008G14KT 24/09 A3023 RMK A01 T02410086  RH  037%=      5-min Rain = 0
KAM1 122109Z 01013KT 24/09 A3023 RMK A01 T02410088  RH  038%=      5-min Rain = 0
KAM1 122110Z 01011KT 24/09 A3023 RMK A01 T02420087  RH  037%=      5-min Rain = 0
KAM1 122111Z 01010KT 24/09 A3023 RMK A01 T02420087  RH  037%=      5-min Rain = 0
KAM1 122112Z 01008KT 24/09 A3023 RMK A01 T02430087  RH  037%=      5-min Rain = 0
KAM1 122113Z 36008KT 24/09 A3023 RMK A01 T02430090  RH  038%=      5-min Rain = 0
KAM1 122114Z 36008KT 24/08 A3023 RMK A01 T02420082  RH  036%=      5-min Rain = 0
KAM1 122115Z 01010KT 24/09 A3023 RMK A01 T02400085  RH  037%=      5-min Rain = 0
KAM1 122116Z 02013KT 24/09 A3023 RMK A01 T02410092  RH  039%=      5-min Rain = 0
KAM1 122117Z 02012KT 24/09 A3023 RMK A01 T02420092  RH  038%=      5-min Rain = 0
KAM1 122118Z 03011KT 24/09 A3023 RMK A01 T02420090  RH  038%=      5-min Rain = 0
KAM1 122119Z 02011KT 24/09 A3023 RMK A01 T02420091  RH  038%=      5-min Rain = 0
KAM1 122120Z 02011KT 24/09 A3023 RMK A01 T02410088  RH  038%=      5-min Rain = 0
KAM1 122121Z 01010KT 24/09 A3023 RMK A01 T02400092  RH  039%=      5-min Rain = 0
KAM1 122122Z 00008KT 24/08 A3022 RMK A01 T02400084  RH  037%=      5-min Rain = 0
KAM1 122123Z 02005KT 24/09 A3022 RMK A01 T02390089  RH  039%=      5-min Rain = 0
KAM1 122124Z 01006KT 24/09 A3022 RMK A01 T02390090  RH  039%=      5-min Rain = 0
KAM1 122125Z 35010KT 24/09 A3022 RMK A01 T02420093  RH  039%=      5-min Rain = 0
KAM1 122126Z 34008KT 24/08 A3022 RMK A01 T02430080  RH  035%=      5-min Rain = 0
KAM1 122127Z 36012KT 24/09 A3022 RMK A01 T02430086  RH  037%=      5-min Rain = 0
KAM1 122128Z 33012KT 24/08 A3022 RMK A01 T02430082  RH  036%=      5-min Rain = 0
KAM1 122129Z 35015KT 24/08 A3022 RMK A01 T02430080  RH  035%=      5-min Rain = 0
KAM1 122130Z 02013KT 24/08 A3022 RMK A01 T02430082  RH  036%=      5-min Rain = 0
KAM1 122131Z 01013KT 24/09 A3022 RMK A01 T02440085  RH  036%=      5-min Rain = 0
KAM1 122132Z 01012KT 25/09 A3022 RMK A01 T02450085  RH  036%=      5-min Rain = 0
KAM1 122133Z 02009G15KT 25/08 A3022 RMK A01 T02450079  RH  035%=      5-min Rain = 0
KAM1 122134Z 02010KT 25/08 A3022 RMK A01 T02450084  RH  036%=      5-min Rain = 0
KAM1 122135Z 03009KT 25/08 A3022 RMK A01 T02450084  RH  036%=      5-min Rain = 0
KAM1 122136Z 02009KT 25/08 A3022 RMK A01 T02450082  RH  035%=      5-min Rain = 0
KAM1 122137Z 03009KT 24/08 A3022 RMK A01 T02430078  RH  035%=      5-min Rain = 0
KAM1 122138Z 02008KT 24/08 A3022 RMK A01 T02420082  RH  036%=      5-min Rain = 0
KAM1 122139Z 36010KT 24/09 A3022 RMK A01 T02420088  RH  038%=      5-min Rain = 0
KAM1 122140Z 35010KT 24/09 A3022 RMK A01 T02430089  RH  038%=      5-min Rain = 0
KAM1 122141Z 00008KT 24/09 A3022 RMK A01 T02440093  RH  038%=      5-min Rain = 0
KAM1 122142Z 36007KT 25/09 A3022 RMK A01 T02450093  RH  038%=      5-min Rain = 0
KAM1 122143Z 35007KT 25/09 A3022 RMK A01 T02450092  RH  038%=      5-min Rain = 0
KAM1 122144Z 35008KT 25/09 A3022 RMK A01 T02450086  RH  036%=      5-min Rain = 0
KAM1 122145Z 35012KT 24/08 A3022 RMK A01 T02440084  RH  036%=      5-min Rain = 0
KAM1 122146Z 36011KT 24/09 A3022 RMK A01 T02430085  RH  036%=      5-min Rain = 0
KAM1 122147Z 02011KT 24/08 A3022 RMK A01 T02420084  RH  036%=      5-min Rain = 0
KAM1 122148Z 01010KT 24/09 A3022 RMK A01 T02430087  RH  037%=      5-min Rain = 0
KAM1 122149Z 01012KT 24/09 A3022 RMK A01 T02430090  RH  038%=      5-min Rain = 0
KAM1 122150Z 01012KT 24/08 A3022 RMK A01 T02430082  RH  036%=      5-min Rain = 0
KAM1 122151Z 01009KT 24/08 A3022 RMK A01 T02430084  RH  036%=      5-min Rain = 0
KAM1 122152Z 03007KT 24/09 A3022 RMK A01 T02420085  RH  037%=      5-min Rain = 0
KAM1 122153Z 03008G13KT 24/09 A3022 RMK A01 T02420087  RH  037%=      5-min Rain = 0
KAM1 122154Z 03008KT 24/09 A3021 RMK A01 T02430089  RH  038%=      5-min Rain = 0
KAM1 122155Z 03010KT 24/09 A3021 RMK A01 T02430089  RH  037%=      5-min Rain = 0
KAM1 122156Z 02013KT 24/09 A3021 RMK A01 T02430090  RH  038%=      5-min Rain = 0
KAM1 122157Z 01010KT 24/09 A3021 RMK A01 T02430088  RH  037%=      5-min Rain = 0
KAM1 122158Z 02009KT 24/09 A3021 RMK A01 T02430086  RH  037%=      5-min Rain = 0
KAM1 122159Z 01007KT 24/08 A3021 RMK A01 T02410084  RH  037%=      5-min Rain = 0
KAM1 122200Z 01005KT 24/09 A3021 RMK A01 T02410092  RH  039%=      5-min Rain = 0
KAM1 122201Z 35011KT 24/09 A3021 RMK A01 T02430090  RH  038%=      5-min Rain = 0
KAM1 122202Z 00011G16KT 24/09 A3021 RMK A01 T02440089  RH  037%=      5-min Rain = 0
KAM1 122203Z 01014KT 24/09 A3021 RMK A01 T02440085  RH  036%=      5-min Rain = 0
KAM1 122204Z 01012KT 24/09 A3021 RMK A01 T02430086  RH  037%=      5-min Rain = 0
KAM1 122205Z 02013KT 24/08 A3021 RMK A01 T02430083  RH  036%=      5-min Rain = 0
KAM1 122206Z 02014KT 24/08 A3021 RMK A01 T02420083  RH  036%=      5-min Rain = 0
KAM1 122207Z 01010KT 24/08 A3021 RMK A01 T02390080  RH  036%=      5-min Rain = 0
KAM1 122208Z 01012KT 24/09 A3021 RMK A01 T02390089  RH  038%=      5-min Rain = 0
KAM1 122209Z 00013KT 24/09 A3021 RMK A01 T02400088  RH  038%=      5-min Rain = 0
KAM1 122210Z 00014KT 24/09 A3021 RMK A01 T02400087  RH  038%=      5-min Rain = 0
KAM1 122211Z 01012KT 24/09 A3021 RMK A01 T02400085  RH  037%=      5-min Rain = 0
KAM1 122212Z 01011KT 24/09 A3021 RMK A01 T02400086  RH  037%=      5-min Rain = 0
KAM1 122213Z 01014KT 24/09 A3021 RMK A01 T02390086  RH  038%=      5-min Rain = 0
KAM1 122214Z 01012KT 24/09 A3021 RMK A01 T02390085  RH  037%=      5-min Rain = 0
KAM1 122215Z 01011KT 24/09 A3021 RMK A01 T02390087  RH  038%=      5-min Rain = 0
KAM1 122216Z 02009G14KT 24/09 A3021 RMK A01 T02400092  RH  039%=      5-min Rain = 0
KAM1 122217Z 01011KT 24/09 A3021 RMK A01 T02420090  RH  038%=      5-min Rain = 0
KAM1 122218Z 02011KT 24/09 A3021 RMK A01 T02420090  RH  038%=      5-min Rain = 0
KAM1 122219Z 03011KT 24/09 A3021 RMK A01 T02420092  RH  039%=      5-min Rain = 0
KAM1 122220Z 03011KT 24/09 A3021 RMK A01 T02420093  RH  039%=      5-min Rain = 0
KAM1 122221Z 04012KT 24/09 A3021 RMK A01 T02420089  RH  038%=      5-min Rain = 0
KAM1 122222Z 03010G15KT 24/09 A3021 RMK A01 T02420087  RH  037%=      5-min Rain = 0
KAM1 122223Z 03012KT 24/09 A3021 RMK A01 T02420090  RH  038%=      5-min Rain = 0
KAM1 122224Z 03009KT 24/09 A3021 RMK A01 T02410087  RH  037%=      5-min Rain = 0
KAM1 122225Z 04007KT 24/09 A3021 RMK A01 T02410086  RH  037%=      5-min Rain = 0
KAM1 122226Z 01008KT 24/09 A3021 RMK A01 T02410090  RH  038%=      5-min Rain = 0
KAM1 122227Z 01009KT 24/09 A3021 RMK A01 T02410091  RH  039%=      5-min Rain = 0
KAM1 122228Z 36010KT 24/09 A3021 RMK A01 T02410092  RH  039%=      5-min Rain = 0
KAM1 122229Z 35010KT 24/10 A3021 RMK A01 T02430095  RH  039%=      5-min Rain = 0
KAM1 122230Z 35009KT 24/09 A3021 RMK A01 T02430089  RH  037%=      5-min Rain = 0
KAM1 122231Z 00010KT 24/09 A3021 RMK A01 T02430092  RH  038%=      5-min Rain = 0
KAM1 122232Z 00010KT 24/09 A3021 RMK A01 T02420089  RH  038%=      5-min Rain = 0
KAM1 122233Z 02010KT 24/09 A3021 RMK A01 T02410089  RH  038%=      5-min Rain = 0
KAM1 122234Z 03010KT 24/09 A3021 RMK A01 T02410090  RH  038%=      5-min Rain = 0
KAM1 122235Z 03011KT 24/09 A3021 RMK A01 T02420087  RH  037%=      5-min Rain = 0
KAM1 122236Z 03010KT 24/09 A3021 RMK A01 T02420087  RH  037%=      5-min Rain = 0
KAM1 122237Z 02010KT 24/09 A3021 RMK A01 T02420092  RH  038%=      5-min Rain = 0
KAM1 122238Z 02009KT 24/09 A3021 RMK A01 T02420092  RH  038%=      5-min Rain = 0
KAM1 122239Z 03010KT 24/09 A3021 RMK A01 T02420090  RH  038%=      5-min Rain = 0
KAM1 122240Z 00011KT 24/09 A3021 RMK A01 T02420088  RH  037%=      5-min Rain = 0
KAM1 122241Z 00011G16KT 24/09 A3021 RMK A01 T02410091  RH  038%=      5-min Rain = 0
KAM1 122242Z 00014KT 24/09 A3021 RMK A01 T02410089  RH  038%=      5-min Rain = 0
KAM1 122243Z 36010KT 24/09 A3021 RMK A01 T02390089  RH  038%=      5-min Rain = 0
KAM1 122244Z 35009KT 24/09 A3021 RMK A01 T02390090  RH  039%=      5-min Rain = 0
KAM1 122245Z 36008KT 24/09 A302 RMK A01 T02390087  RH  038%=      5-min Rain = 0
KAM1 122246Z 34008KT 24/09 A302 RMK A01 T02390086  RH  038%=      5-min Rain = 0
KAM1 122247Z 35009KT 24/09 A302 RMK A01 T02390091  RH  039%=      5-min Rain = 0
KAM1 122248Z 01010KT 24/09 A302 RMK A01 T02400091  RH  039%=      5-min Rain = 0
KAM1 122249Z 03010KT 24/09 A302 RMK A01 T02410090  RH  038%=      5-min Rain = 0
KAM1 122250Z 03009KT 24/09 A302 RMK A01 T02410085  RH  037%=      5-min Rain = 0
KAM1 122251Z 01011KT 24/09 A302 RMK A01 T02400086  RH  037%=      5-min Rain = 0
KAM1 122252Z 02013KT 24/09 A302 RMK A01 T02400087  RH  038%=      5-min Rain = 0
KAM1 122253Z 01011KT 24/09 A302 RMK A01 T02400087  RH  038%=      5-min Rain = 0
KAM1 122254Z 01011KT 24/08 A302 RMK A01 T02390084  RH  037%=      5-min Rain = 0
KAM1 122255Z 01008KT 24/08 A302 RMK A01 T02380081  RH  037%=      5-min Rain = 0
KAM1 122256Z 01007KT 24/09 A302 RMK A01 T02370086  RH  038%=      5-min Rain = 0
KAM1 122257Z 02006KT 24/08 A302 RMK A01 T02380083  RH  037%=      5-min Rain = 0
KAM1 122258Z 00010KT 24/09 A302 RMK A01 T02380090  RH  039%=      5-min Rain = 0
KAM1 122259Z 35010KT 24/09 A302 RMK A01 T02390089  RH  038%=      5-min Rain = 0
KAM1 122300Z 00012KT 24/09 A302 RMK A01 T02390087  RH  038%=      5-min Rain = 0
KAM1 122301Z 36011KT 24/08 A302 RMK A01 T02390083  RH  037%=      5-min Rain = 0
KAM1 122302Z 01009KT 24/08 A302 RMK A01 T02380084  RH  037%=      5-min Rain = 0
KAM1 122303Z 01010KT 24/08 A302 RMK A01 T02370082  RH  037%=      5-min Rain = 0
KAM1 122304Z 01009KT 24/08 A302 RMK A01 T02370083  RH  037%=      5-min Rain = 0
KAM1 122305Z 01011KT 24/09 A302 RMK A01 T02370085  RH  038%=      5-min Rain = 0
KAM1 122306Z 36010KT 24/09 A302 RMK A01 T02370087  RH  038%=      5-min Rain = 0
KAM1 122307Z 35009KT 24/09 A302 RMK A01 T02370088  RH  039%=      5-min Rain = 0
KAM1 122308Z 34007KT 24/09 A302 RMK A01 T02370087  RH  038%=      5-min Rain = 0
KAM1 122309Z 35007KT 24/09 A302 RMK A01 T02380094  RH  040%=      5-min Rain = 0
KAM1 122310Z 35007KT 24/10 A302 RMK A01 T02400095  RH  040%=      5-min Rain = 0
KAM1 122311Z 01008KT 24/09 A302 RMK A01 T02400090  RH  038%=      5-min Rain = 0
KAM1 122312Z 00008KT 24/09 A302 RMK A01 T02390086  RH  037%=      5-min Rain = 0
KAM1 122313Z 00008KT 24/09 A302 RMK A01 T02380089  RH  038%=      5-min Rain = 0
KAM1 122314Z 36007KT 24/09 A302 RMK A01 T02380087  RH  038%=      5-min Rain = 0
KAM1 122315Z 00007KT 24/09 A302 RMK A01 T02380086  RH  038%=      5-min Rain = 0
KAM1 122316Z 00010KT 24/09 A302 RMK A01 T02380090  RH  039%=      5-min Rain = 0
KAM1 122317Z 36009KT 24/09 A302 RMK A01 T02380089  RH  039%=      5-min Rain = 0
KAM1 122318Z 35011KT 24/09 A302 RMK A01 T02380091  RH  039%=      5-min Rain = 0
KAM1 122319Z 35011KT 24/09 A302 RMK A01 T02380087  RH  038%=      5-min Rain = 0
KAM1 122320Z 00009KT 24/10 A302 RMK A01 T02380095  RH  040%=      5-min Rain = 0
KAM1 122321Z 36011KT 24/09 A302 RMK A01 T02380085  RH  037%=      5-min Rain = 0
KAM1 122322Z 01009KT 24/08 A302 RMK A01 T02370083  RH  037%=      5-min Rain = 0
KAM1 122323Z 00007KT 24/08 A302 RMK A01 T02370083  RH  038%=      5-min Rain = 0
KAM1 122324Z 02009KT 24/09 A302 RMK A01 T02360090  RH  039%=      5-min Rain = 0
KAM1 122325Z 02010KT 24/09 A302 RMK A01 T02370086  RH  038%=      5-min Rain = 0
KAM1 122326Z 01009KT 24/08 A302 RMK A01 T02370084  RH  037%=      5-min Rain = 0
KAM1 122327Z 36010KT 24/09 A302 RMK A01 T02370087  RH  038%=      5-min Rain = 0
KAM1 122328Z 36011KT 24/09 A302 RMK A01 T02370093  RH  040%=      5-min Rain = 0
KAM1 122329Z 01011KT 24/09 A302 RMK A01 T02380088  RH  039%=      5-min Rain = 0
KAM1 122330Z 01009KT 24/09 A302 RMK A01 T02370092  RH  040%=      5-min Rain = 0
KAM1 122331Z 01009KT 24/09 A302 RMK A01 T02370087  RH  038%=      5-min Rain = 0
KAM1 122332Z 02011KT 24/09 A302 RMK A01 T02360086  RH  038%=      5-min Rain = 0
KAM1 122333Z 01009KT 24/08 A302 RMK A01 T02350082  RH  038%=      5-min Rain = 0
KAM1 122334Z 00009KT 24/08 A302 RMK A01 T02350084  RH  038%=      5-min Rain = 0
KAM1 122335Z 00007KT 24/08 A302 RMK A01 T02350082  RH  038%=      5-min Rain = 0
KAM1 122336Z 01006KT 24/09 A302 RMK A01 T02350087  RH  039%=      5-min Rain = 0
KAM1 122337Z 36007KT 24/09 A302 RMK A01 T02350092  RH  040%=      5-min Rain = 0
KAM1 122338Z 00007KT 24/08 A302 RMK A01 T02350081  RH  037%=      5-min Rain = 0
KAM1 122339Z 01005KT 24/09 A302 RMK A01 T02350090  RH  040%=      5-min Rain = 0
KAM1 122340Z 03008KT 24/09 A302 RMK A01 T02360093  RH  040%=      5-min Rain = 0
KAM1 122341Z 02007KT 24/09 A302 RMK A01 T02360089  RH  039%=      5-min Rain = 0
KAM1 122342Z 01008KT 24/09 A302 RMK A01 T02370086  RH  038%=      5-min Rain = 0
KAM1 122343Z 02010KT 24/09 A302 RMK A01 T02360085  RH  038%=      5-min Rain = 0
KAM1 122344Z 02009KT 24/08 A302 RMK A01 T02360081  RH  037%=      5-min Rain = 0
KAM1 122345Z 01006KT 24/09 A302 RMK A01 T02360087  RH  039%=      5-min Rain = 0
KAM1 122346Z 02007KT 24/09 A302 RMK A01 T02350090  RH  040%=      5-min Rain = 0
KAM1 122347Z 02006KT 24/08 A302 RMK A01 T02350083  RH  038%=      5-min Rain = 0
KAM1 122348Z 03006KT 24/09 A302 RMK A01 T02350088  RH  039%=      5-min Rain = 0
KAM1 122349Z 02006G11KT 24/10 A302 RMK A01 T02350095  RH  041%=      5-min Rain = 0
KAM1 122350Z 02011KT 24/09 A302 RMK A01 T02360088  RH  039%=      5-min Rain = 0
KAM1 122351Z 01009KT 24/08 A302 RMK A01 T02360083  RH  037%=      5-min Rain = 0
KAM1 122352Z 02010KT 24/08 A302 RMK A01 T02350084  RH  038%=      5-min Rain = 0
KAM1 122353Z 02010KT 23/08 A302 RMK A01 T02340083  RH  038%=      5-min Rain = 0
KAM1 122354Z 01009KT 23/08 A302 RMK A01 T02340081  RH  038%=      5-min Rain = 0
KAM1 122355Z 02008KT 23/08 A302 RMK A01 T02330082  RH  038%=      5-min Rain = 0
KAM1 122356Z 03008KT 23/09 A302 RMK A01 T02330085  RH  039%=      5-min Rain = 0
KAM1 122357Z 02008KT 23/09 A302 RMK A01 T02330086  RH  039%=      5-min Rain = 0
KAM1 122358Z 01006KT 23/09 A302 RMK A01 T02330086  RH  039%=      5-min Rain = 0
KAM1 122359Z 34007KT 23/09 A302 RMK A01 T02330087  RH  039%=      5-min Rain = 0
KAM1 130000Z 35006KT 23/08 A302 RMK A01 T02330082  RH  038%=      5-min Rain = 0
KAM1 130001Z 36008KT 23/09 A302 RMK A01 T02340089  RH  040%=      5-min Rain = 0
KAM1 130002Z 02006KT 23/08 A302 RMK A01 T02340084  RH  038%=      5-min Rain = 0
KAM1 130003Z 03004KT 23/08 A302 RMK A01 T02340083  RH  038%=      5-min Rain = 0
KAM1 130004Z 04005KT 23/09 A302 RMK A01 T02340087  RH  039%=      5-min Rain = 0
KAM1 130005Z 04006KT 23/09 A302 RMK A01 T02340085  RH  039%=      5-min Rain = 0
KAM1 130006Z 05005KT 23/09 A302 RMK A01 T02340088  RH  039%=      5-min Rain = 0
KAM1 130007Z 05005KT 23/09 A302 RMK A01 T02340089  RH  040%=      5-min Rain = 0
KAM1 130008Z 04005KT 23/09 A302 RMK A01 T02340089  RH  039%=      5-min Rain = 0
KAM1 130009Z 03004KT 23/09 A302 RMK A01 T02340086  RH  039%=      5-min Rain = 0
KAM1 130010Z 02004KT 24/09 A302 RMK A01 T02350091  RH  040%=      5-min Rain = 0
KAM1 130011Z 02007KT 24/09 A302 RMK A01 T02350094  RH  041%=      5-min Rain = 0
KAM1 130012Z 01008KT 24/09 A302 RMK A01 T02350088  RH  039%=      5-min Rain = 0
KAM1 130013Z 35006KT 23/09 A302 RMK A01 T02340088  RH  039%=      5-min Rain = 0
KAM1 130014Z 36006KT 23/09 A302 RMK A01 T02330088  RH  040%=      5-min Rain = 0
KAM1 130015Z 02005KT 23/09 A302 RMK A01 T02330086  RH  039%=      5-min Rain = 0
KAM1 130016Z 05006KT 23/09 A302 RMK A01 T02330086  RH  039%=      5-min Rain = 0
KAM1 130017Z 05006KT 23/08 A302 RMK A01 T02330076  RH  037%=      5-min Rain = 0
KAM1 130018Z 04006KT 23/08 A302 RMK A01 T02330081  RH  038%=      5-min Rain = 0
KAM1 130019Z 03005KT 23/08 A302 RMK A01 T02330083  RH  038%=      5-min Rain = 0
KAM1 130020Z 04005KT 23/09 A302 RMK A01 T02330089  RH  040%=      5-min Rain = 0
KAM1 130021Z 03003KT 23/09 A302 RMK A01 T02320087  RH  040%=      5-min Rain = 0
KAM1 130022Z 04003KT 23/09 A302 RMK A01 T02320089  RH  040%=      5-min Rain = 0
KAM1 130023Z 05004KT 23/08 A302 RMK A01 T02320084  RH  039%=      5-min Rain = 0
KAM1 130024Z 04006KT 23/09 A302 RMK A01 T02330085  RH  039%=      5-min Rain = 0
KAM1 130025Z 03007KT 23/09 A302 RMK A01 T02330085  RH  039%=      5-min Rain = 0
KAM1 130026Z 05006KT 23/08 A302 RMK A01 T02320084  RH  039%=      5-min Rain = 0
KAM1 130027Z 06004KT 23/08 A302 RMK A01 T02320078  RH  037%=      5-min Rain = 0
KAM1 130028Z 03006KT 23/09 A302 RMK A01 T02320085  RH  039%=      5-min Rain = 0
KAM1 130029Z 01007KT 23/09 A302 RMK A01 T02310085  RH  039%=      5-min Rain = 0
KAM1 130030Z 03008KT 23/09 A3019 RMK A01 T02310088  RH  040%=      5-min Rain = 0
KAM1 130031Z 02009KT 23/08 A3019 RMK A01 T02300078  RH  038%=      5-min Rain = 0
KAM1 130032Z 02007KT 23/08 A3019 RMK A01 T02300077  RH  037%=      5-min Rain = 0
KAM1 130033Z 03005KT 23/08 A3019 RMK A01 T02290078  RH  038%=      5-min Rain = 0
KAM1 130034Z 04005KT 23/09 A302 RMK A01 T02290087  RH  040%=      5-min Rain = 0
KAM1 130035Z 02006KT 23/09 A302 RMK A01 T02280091  RH  042%=      5-min Rain = 0
KAM1 130036Z 02007KT 23/09 A302 RMK A01 T02270086  RH  040%=      5-min Rain = 0
KAM1 130037Z 01005KT 23/07 A302 RMK A01 T02270072  RH  037%=      5-min Rain = 0
KAM1 130038Z 01007KT 23/08 A302 RMK A01 T02280084  RH  040%=      5-min Rain = 0
KAM1 130039Z 00006KT 23/09 A302 RMK A01 T02280090  RH  041%=      5-min Rain = 0
KAM1 130040Z 01007KT 23/09 A302 RMK A01 T02270088  RH  041%=      5-min Rain = 0
KAM1 130041Z 00007KT 23/09 A302 RMK A01 T02260086  RH  041%=      5-min Rain = 0
KAM1 130042Z 35007KT 23/08 A302 RMK A01 T02260083  RH  040%=      5-min Rain = 0
KAM1 130043Z 00006KT 23/08 A302 RMK A01 T02260080  RH  039%=      5-min Rain = 0
KAM1 130044Z 00006KT 23/08 A302 RMK A01 T02260084  RH  040%=      5-min Rain = 0
KAM1 130045Z 36006KT 23/09 A302 RMK A01 T02260086  RH  041%=      5-min Rain = 0
KAM1 130046Z 35006KT 23/09 A302 RMK A01 T02250088  RH  042%=      5-min Rain = 0
KAM1 130047Z 36008KT 23/09 A302 RMK A01 T02250086  RH  041%=      5-min Rain = 0
KAM1 130048Z 03005KT 22/09 A302 RMK A01 T02240086  RH  041%=      5-min Rain = 0
KAM1 130049Z 04005KT 22/09 A302 RMK A01 T02240091  RH  043%=      5-min Rain = 0
KAM1 130050Z 04005KT 22/09 A302 RMK A01 T02240090  RH  042%=      5-min Rain = 0
KAM1 130051Z 04005KT 22/09 A302 RMK A01 T02240091  RH  043%=      5-min Rain = 0
KAM1 130052Z 04004KT 22/09 A302 RMK A01 T02230085  RH  041%=      5-min Rain = 0
KAM1 130053Z 04004KT 22/08 A302 RMK A01 T02230080  RH  040%=      5-min Rain = 0
KAM1 130054Z 03005KT 22/08 A302 RMK A01 T02240079  RH  039%=      5-min Rain = 0
KAM1 130055Z 05005KT 23/08 A302 RMK A01 T02250077  RH  039%=      5-min Rain = 0
KAM1 130056Z 05005KT 23/08 A302 RMK A01 T02250083  RH  040%=      5-min Rain = 0
KAM1 130057Z 04006KT 23/09 A302 RMK A01 T02250088  RH  041%=      5-min Rain = 0
KAM1 130058Z 03005KT 22/09 A302 RMK A01 T02240088  RH  042%=      5-min Rain = 0
KAM1 130059Z 02005KT 22/09 A302 RMK A01 T02230088  RH  042%=      5-min Rain = 0
KAM1 130100Z 01005KT 22/09 A302 RMK A01 T02220089  RH  042%=      5-min Rain = 0
KAM1 130101Z 02005KT 22/09 A302 RMK A01 T02210091  RH  043%=      5-min Rain = 0
KAM1 130102Z 03006KT 22/09 A302 RMK A01 T02200091  RH  044%=      5-min Rain = 0
KAM1 130103Z 02005KT 22/09 A302 RMK A01 T02190087  RH  043%=      5-min Rain = 0
KAM1 130104Z 02004KT 22/09 A302 RMK A01 T02180091  RH  044%=      5-min Rain = 0
KAM1 130105Z 03005KT 22/09 A302 RMK A01 T02170092  RH  045%=      5-min Rain = 0
KAM1 130106Z 03006KT 22/08 A302 RMK A01 T02170082  RH  042%=      5-min Rain = 0
KAM1 130107Z 03006KT 22/09 A302 RMK A01 T02170089  RH  044%=      5-min Rain = 0
KAM1 130108Z 03006KT 22/09 A302 RMK A01 T02170088  RH  044%=      5-min Rain = 0
KAM1 130109Z 02006KT 22/09 A302 RMK A01 T02160086  RH  043%=      5-min Rain = 0
KAM1 130110Z 02006KT 22/09 A302 RMK A01 T02150087  RH  044%=      5-min Rain = 0
KAM1 130111Z 03006KT 21/09 A302 RMK A01 T02140086  RH  044%=      5-min Rain = 0
KAM1 130112Z 04006KT 21/09 A302 RMK A01 T02140085  RH  044%=      5-min Rain = 0
KAM1 130113Z 05007KT 21/09 A302 RMK A01 T02130086  RH  044%=      5-min Rain = 0
KAM1 130114Z 04006KT 21/08 A302 RMK A01 T02130084  RH  043%=      5-min Rain = 0
KAM1 130115Z 05005KT 21/09 A302 RMK A01 T02130087  RH  044%=      5-min Rain = 0
KAM1 130116Z 05006KT 21/09 A302 RMK A01 T02120085  RH  044%=      5-min Rain = 0
KAM1 130117Z 05005KT 21/08 A302 RMK A01 T02110083  RH  043%=      5-min Rain = 0
KAM1 130118Z 05007KT 21/08 A302 RMK A01 T02110080  RH  043%=      5-min Rain = 0
KAM1 130119Z 05007KT 21/08 A302 RMK A01 T02120078  RH  042%=      5-min Rain = 0
KAM1 130120Z 06006KT 21/08 A302 RMK A01 T02120077  RH  042%=      5-min Rain = 0
KAM1 130121Z 05005KT 21/08 A302 RMK A01 T02120077  RH  042%=      5-min Rain = 0
KAM1 130122Z 05005KT 21/08 A302 RMK A01 T02120080  RH  043%=      5-min Rain = 0
KAM1 130123Z 05006KT 21/08 A302 RMK A01 T02120081  RH  043%=      5-min Rain = 0
KAM1 130124Z 06005KT 21/08 A302 RMK A01 T02110081  RH  043%=      5-min Rain = 0
KAM1 130125Z 06005KT 21/08 A302 RMK A01 T02100083  RH  044%=      5-min Rain = 0
KAM1 130126Z 06006KT 21/08 A302 RMK A01 T02090082  RH  044%=      5-min Rain = 0
KAM1 130127Z 06005KT 21/08 A302 RMK A01 T02090080  RH  043%=      5-min Rain = 0
KAM1 130128Z 06005KT 21/08 A302 RMK A01 T02090082  RH  044%=      5-min Rain = 0
KAM1 130129Z 07004KT 21/08 A302 RMK A01 T02090082  RH  044%=      5-min Rain = 0
KAM1 130130Z 07004KT 21/08 A302 RMK A01 T02080082  RH  044%=      5-min Rain = 0
KAM1 130131Z 07004KT 21/08 A302 RMK A01 T02080083  RH  045%=      5-min Rain = 0
KAM1 130132Z 07005KT 21/09 A302 RMK A01 T02080085  RH  045%=      5-min Rain = 0
KAM1 130133Z 06005KT 21/08 A302 RMK A01 T02080084  RH  045%=      5-min Rain = 0
KAM1 130134Z 06005KT 21/09 A302 RMK A01 T02070085  RH  045%=      5-min Rain = 0
KAM1 130135Z 06004KT 21/08 A302 RMK A01 T02060084  RH  045%=      5-min Rain = 0
KAM1 130136Z 06004KT 21/08 A302 RMK A01 T02050084  RH  046%=      5-min Rain = 0
KAM1 130137Z 06003KT 21/08 A302 RMK A01 T02050083  RH  045%=      5-min Rain = 0
KAM1 130138Z 06003KT 21/08 A302 RMK A01 T02050081  RH  045%=      5-min Rain = 0
KAM1 130139Z 07004KT 21/08 A302 RMK A01 T02050080  RH  045%=      5-min Rain = 0
KAM1 130140Z 07004KT 21/08 A302 RMK A01 T02050082  RH  045%=      5-min Rain = 0
KAM1 130141Z 07004KT 20/08 A302 RMK A01 T02040080  RH  045%=      5-min Rain = 0
KAM1 130142Z 07004KT 21/08 A302 RMK A01 T02050081  RH  045%=      5-min Rain = 0
KAM1 130143Z 07005KT 21/08 A302 RMK A01 T02050081  RH  045%=      5-min Rain = 0
KAM1 130144Z 07005KT 21/08 A302 RMK A01 T02050082  RH  045%=      5-min Rain = 0
KAM1 130145Z 07005KT 21/08 A302 RMK A01 T02050082  RH  045%=      5-min Rain = 0
KAM1 130146Z 08005KT 20/08 A302 RMK A01 T02030082  RH  046%=      5-min Rain = 0
KAM1 130147Z 08005KT 20/08 A302 RMK A01 T02020081  RH  046%=      5-min Rain = 0
KAM1 130148Z 08004KT 20/08 A302 RMK A01 T02020082  RH  046%=      5-min Rain = 0
KAM1 130149Z 08005KT 20/08 A302 RMK A01 T02010082  RH  046%=      5-min Rain = 0
KAM1 130150Z 08005KT 20/08 A302 RMK A01 T02000081  RH  046%=      5-min Rain = 0
KAM1 130151Z 08005KT 20/08 A302 RMK A01 T02000081  RH  046%=      5-min Rain = 0
KAM1 130152Z 08005KT 20/08 A302 RMK A01 T01990081  RH  046%=      5-min Rain = 0
KAM1 130153Z 08005KT 20/08 A302 RMK A01 T01980082  RH  047%=      5-min Rain = 0
KAM1 130154Z 08005KT 20/08 A302 RMK A01 T01970082  RH  047%=      5-min Rain = 0
KAM1 130155Z 08005KT 20/08 A302 RMK A01 T01970084  RH  048%=      5-min Rain = 0
KAM1 130156Z 08005KT 20/08 A302 RMK A01 T01960083  RH  048%=      5-min Rain = 0
KAM1 130157Z 08005KT 20/08 A302 RMK A01 T01950083  RH  048%=      5-min Rain = 0
KAM1 130158Z 08005KT 19/08 A302 RMK A01 T01940082  RH  048%=      5-min Rain = 0
KAM1 130159Z 08005KT 19/08 A302 RMK A01 T01930082  RH  049%=      5-min Rain = 0
KAM1 130200Z 08005KT 19/08 A302 RMK A01 T01930083  RH  049%=      5-min Rain = 0
KAM1 130201Z 08004KT 19/08 A3019 RMK A01 T01920084  RH  049%=      5-min Rain = 0
KAM1 130202Z 08004KT 19/09 A3019 RMK A01 T01910085  RH  050%=      5-min Rain = 0
KAM1 130203Z 08005KT 19/09 A3019 RMK A01 T01900086  RH  051%=      5-min Rain = 0
KAM1 130204Z 09005KT 19/09 A3019 RMK A01 T01890086  RH  051%=      5-min Rain = 0
KAM1 130205Z 09005KT 19/09 A3019 RMK A01 T01880085  RH  051%=      5-min Rain = 0
KAM1 130206Z 09005KT 19/09 A3019 RMK A01 T01870085  RH  051%=      5-min Rain = 0
KAM1 130207Z 09005KT 19/09 A3019 RMK A01 T01860086  RH  052%=      5-min Rain = 0
KAM1 130208Z 09005KT 19/09 A3019 RMK A01 T01850087  RH  053%=      5-min Rain = 0
KAM1 130209Z 09005KT 19/09 A3019 RMK A01 T01850088  RH  053%=      5-min Rain = 0
KAM1 130210Z 10005KT 18/09 A3019 RMK A01 T01840087  RH  053%=      5-min Rain = 0
KAM1 130211Z 10005KT 18/09 A3019 RMK A01 T01840086  RH  053%=      5-min Rain = 0
KAM1 130212Z 10005KT 18/09 A3019 RMK A01 T01830085  RH  053%=      5-min Rain = 0
KAM1 130213Z 09005KT 18/08 A3019 RMK A01 T01830084  RH  052%=      5-min Rain = 0
KAM1 130214Z 09005KT 18/08 A3019 RMK A01 T01830083  RH  052%=      5-min Rain = 0
KAM1 130215Z 09005KT 18/08 A3019 RMK A01 T01820081  RH  052%=      5-min Rain = 0
KAM1 130216Z 09006KT 18/08 A3019 RMK A01 T01810080  RH  051%=      5-min Rain = 0
KAM1 130217Z 09006KT 18/08 A3019 RMK A01 T01810078  RH  051%=      5-min Rain = 0
KAM1 130218Z 09007KT 18/08 A3019 RMK A01 T01810079  RH  051%=      5-min Rain = 0
KAM1 130219Z 09006KT 18/08 A3019 RMK A01 T01800079  RH  052%=      5-min Rain = 0
KAM1 130220Z 10006KT 18/08 A3019 RMK A01 T01790080  RH  052%=      5-min Rain = 0
KAM1 130221Z 10006KT 18/08 A3019 RMK A01 T01770081  RH  053%=      5-min Rain = 0
KAM1 130222Z 10006KT 18/08 A3019 RMK A01 T01750082  RH  054%=      5-min Rain = 0
KAM1 130223Z 10006KT 17/08 A3019 RMK A01 T01740082  RH  055%=      5-min Rain = 0
KAM1 130224Z 10006KT 17/08 A3019 RMK A01 T01720082  RH  055%=      5-min Rain = 0
KAM1 130225Z 10007KT 17/08 A3019 RMK A01 T01710083  RH  056%=      5-min Rain = 0
KAM1 130226Z 10007KT 17/08 A3019 RMK A01 T01700083  RH  057%=      5-min Rain = 0
KAM1 130227Z 10007KT 17/08 A3019 RMK A01 T01690084  RH  057%=      5-min Rain = 0
KAM1 130228Z 10007KT 17/08 A3019 RMK A01 T01680084  RH  058%=      5-min Rain = 0
KAM1 130229Z 10007KT 17/09 A3019 RMK A01 T01670085  RH  058%=      5-min Rain = 0
KAM1 130230Z 10007KT 17/08 A3019 RMK A01 T01660084  RH  059%=      5-min Rain = 0
KAM1 130231Z 10007KT 17/08 A3019 RMK A01 T01650084  RH  059%=      5-min Rain = 0
KAM1 130232Z 10006KT 16/08 A3019 RMK A01 T01640084  RH  059%=      5-min Rain = 0
KAM1 130233Z 10006KT 16/08 A3019 RMK A01 T01640084  RH  059%=      5-min Rain = 0
KAM1 130234Z 10006KT 16/08 A3019 RMK A01 T01640084  RH  059%=      5-min Rain = 0
KAM1 130235Z 10006KT 16/08 A3019 RMK A01 T01630084  RH  059%=      5-min Rain = 0
KAM1 130236Z 10006KT 16/08 A3019 RMK A01 T01630084  RH  059%=      5-min Rain = 0
KAM1 130237Z 11006KT 16/08 A3019 RMK A01 T01630083  RH  059%=      5-min Rain = 0
KAM1 130238Z 11005KT 16/08 A3019 RMK A01 T01630083  RH  059%=      5-min Rain = 0
KAM1 130239Z 11005KT 16/08 A3019 RMK A01 T01640083  RH  058%=      5-min Rain = 0
KAM1 130240Z 11005KT 17/08 A3019 RMK A01 T01660083  RH  058%=      5-min Rain = 0
KAM1 130241Z 11005KT 17/08 A3019 RMK A01 T01660083  RH  058%=      5-min Rain = 0
KAM1 130242Z 11004KT 17/08 A3019 RMK A01 T01660084  RH  058%=      5-min Rain = 0
KAM1 130243Z 11004KT 17/09 A3019 RMK A01 T01660086  RH  059%=      5-min Rain = 0
KAM1 130244Z 11004KT 17/09 A302 RMK A01 T01650085  RH  059%=      5-min Rain = 0
KAM1 130245Z 12004KT 16/09 A302 RMK A01 T01640085  RH  060%=      5-min Rain = 0
KAM1 130246Z 12003KT 16/09 A302 RMK A01 T01630087  RH  061%=      5-min Rain = 0
KAM1 130247Z 12003KT 16/09 A302 RMK A01 T01620089  RH  062%=      5-min Rain = 0
KAM1 130248Z 12003KT 16/09 A302 RMK A01 T01590092  RH  064%=      5-min Rain = 0
KAM1 130249Z 12004KT 16/09 A302 RMK A01 T01580094  RH  066%=      5-min Rain = 0
KAM1 130250Z 12004KT 16/10 A302 RMK A01 T01570096  RH  067%=      5-min Rain = 0
KAM1 130251Z 12004KT 16/10 A302 RMK A01 T01580096  RH  067%=      5-min Rain = 0
KAM1 130252Z 13003KT 16/09 A302 RMK A01 T01580094  RH  065%=      5-min Rain = 0
KAM1 130253Z 13003KT 16/09 A302 RMK A01 T01580093  RH  065%=      5-min Rain = 0
KAM1 130254Z 13003KT 16/09 A302 RMK A01 T01580092  RH  065%=      5-min Rain = 0
KAM1 130255Z 13003KT 16/09 A302 RMK A01 T01570092  RH  065%=      5-min Rain = 0
KAM1 130256Z 13003KT 16/09 A302 RMK A01 T01570092  RH  065%=      5-min Rain = 0
KAM1 130257Z 13003KT 16/09 A302 RMK A01 T01560092  RH  066%=      5-min Rain = 0
KAM1 130258Z 13003KT 16/09 A302 RMK A01 T01550092  RH  066%=      5-min Rain = 0
KAM1 130259Z 12003KT 16/09 A302 RMK A01 T01550092  RH  066%=      5-min Rain = 0
KAM1 130300Z 12004KT 16/09 A302 RMK A01 T01550092  RH  066%=      5-min Rain = 0
KAM1 130301Z 12004KT 16/09 A302 RMK A01 T01550092  RH  066%=      5-min Rain = 0
KAM1 130302Z 12004KT 16/09 A302 RMK A01 T01560092  RH  066%=      5-min Rain = 0
KAM1 130303Z 11003KT 16/09 A302 RMK A01 T01560092  RH  065%=      5-min Rain = 0
KAM1 130304Z 11003KT 16/09 A3021 RMK A01 T01570092  RH  065%=      5-min Rain = 0
KAM1 130305Z 11003KT 16/09 A3021 RMK A01 T01570092  RH  065%=      5-min Rain = 0
KAM1 130306Z 11003KT 16/09 A3021 RMK A01 T01570091  RH  065%=      5-min Rain = 0
KAM1 130307Z 11003KT 16/09 A3021 RMK A01 T01560092  RH  065%=      5-min Rain = 0
KAM1 130308Z 11003KT 16/09 A3021 RMK A01 T01560091  RH  066%=      5-min Rain = 0
KAM1 130309Z 11003KT 16/09 A3021 RMK A01 T01550091  RH  066%=      5-min Rain = 0
KAM1 130310Z 11003KT 15/09 A3021 RMK A01 T01540091  RH  066%=      5-min Rain = 0
KAM1 130311Z 11003KT 15/09 A3021 RMK A01 T01520091  RH  067%=      5-min Rain = 0
KAM1 130312Z 11003KT 15/09 A3021 RMK A01 T01520090  RH  067%=      5-min Rain = 0
KAM1 130313Z 11004KT 15/09 A3021 RMK A01 T01510089  RH  067%=      5-min Rain = 0
KAM1 130314Z 12004KT 15/09 A3021 RMK A01 T01500089  RH  067%=      5-min Rain = 0
KAM1 130315Z 12004KT 15/09 A3021 RMK A01 T01500089  RH  067%=      5-min Rain = 0
KAM1 130316Z 12003KT 15/09 A3021 RMK A01 T01510089  RH  066%=      5-min Rain = 0
KAM1 130317Z 14003KT 15/09 A3021 RMK A01 T01510089  RH  066%=      5-min Rain = 0
KAM1 130318Z 15003KT 15/09 A3021 RMK A01 T01520088  RH  066%=      5-min Rain = 0
KAM1 130319Z 14003KT 15/09 A3021 RMK A01 T01530088  RH  065%=      5-min Rain = 0
KAM1 130320Z 14003KT 15/09 A3021 RMK A01 T01540088  RH  065%=      5-min Rain = 0
KAM1 130321Z 13004KT 16/09 A3021 RMK A01 T01550088  RH  064%=      5-min Rain = 0
KAM1 130322Z 13004KT 16/09 A3021 RMK A01 T01560088  RH  064%=      5-min Rain = 0
KAM1 130323Z 13004KT 16/09 A3021 RMK A01 T01550087  RH  064%=      5-min Rain = 0
KAM1 130324Z 13005KT 16/09 A3021 RMK A01 T01550087  RH  064%=      5-min Rain = 0
KAM1 130325Z 13005KT 15/09 A3021 RMK A01 T01540087  RH  064%=      5-min Rain = 0
KAM1 130326Z 13005KT 15/09 A3021 RMK A01 T01520087  RH  065%=      5-min Rain = 0
KAM1 130327Z 13005KT 15/09 A3021 RMK A01 T01510087  RH  065%=      5-min Rain = 0
KAM1 130328Z 13005KT 15/09 A3022 RMK A01 T01500087  RH  066%=      5-min Rain = 0
KAM1 130329Z 14005KT 15/09 A3022 RMK A01 T01500087  RH  066%=      5-min Rain = 0
KAM1 130330Z 14006KT 15/09 A3022 RMK A01 T01510086  RH  065%=      5-min Rain = 0
KAM1 130331Z 14005KT 15/09 A3022 RMK A01 T01520086  RH  065%=      5-min Rain = 0
KAM1 130332Z 13005KT 15/09 A3022 RMK A01 T01520085  RH  064%=      5-min Rain = 0
KAM1 130333Z 13005KT 15/09 A3022 RMK A01 T01530085  RH  064%=      5-min Rain = 0
KAM1 130334Z 13005KT 15/08 A3022 RMK A01 T01530084  RH  064%=      5-min Rain = 0
KAM1 130335Z 13004KT 15/09 A3022 RMK A01 T01540085  RH  063%=      5-min Rain = 0
KAM1 130336Z 13005KT 16/09 A3022 RMK A01 T01550085  RH  063%=      5-min Rain = 0
KAM1 130337Z 12004KT 16/09 A3022 RMK A01 T01550086  RH  063%=      5-min Rain = 0
KAM1 130338Z 12004KT 16/09 A3022 RMK A01 T01550086  RH  063%=      5-min Rain = 0
KAM1 130339Z 11004KT 16/09 A3022 RMK A01 T01550088  RH  064%=      5-min Rain = 0
KAM1 130340Z 11005KT 16/09 A3022 RMK A01 T01550088  RH  064%=      5-min Rain = 0
KAM1 130341Z 11005KT 15/09 A3022 RMK A01 T01540088  RH  065%=      5-min Rain = 0
KAM1 130342Z 12005KT 15/09 A3022 RMK A01 T01540088  RH  064%=      5-min Rain = 0
KAM1 130343Z 12005KT 16/09 A3022 RMK A01 T01550087  RH  064%=      5-min Rain = 0
KAM1 130344Z 13005KT 16/09 A3022 RMK A01 T01560088  RH  064%=      5-min Rain = 0
KAM1 130345Z 13005KT 16/09 A3022 RMK A01 T01560087  RH  064%=      5-min Rain = 0
KAM1 130346Z 13005KT 16/09 A3023 RMK A01 T01560087  RH  064%=      5-min Rain = 0
KAM1 130347Z 13005KT 16/09 A3023 RMK A01 T01570087  RH  063%=      5-min Rain = 0
KAM1 130348Z 13006KT 16/09 A3023 RMK A01 T01560087  RH  063%=      5-min Rain = 0
KAM1 130349Z 12005KT 16/09 A3023 RMK A01 T01550087  RH  064%=      5-min Rain = 0
KAM1 130350Z 12005KT 15/09 A3023 RMK A01 T01540087  RH  064%=      5-min Rain = 0
KAM1 130351Z 12005KT 15/09 A3023 RMK A01 T01540087  RH  064%=      5-min Rain = 0
KAM1 130352Z 12005KT 15/09 A3023 RMK A01 T01530087  RH  065%=      5-min Rain = 0
KAM1 130353Z 12005KT 15/09 A3023 RMK A01 T01540088  RH  065%=      5-min Rain = 0
KAM1 130354Z 12004KT 15/09 A3023 RMK A01 T01540089  RH  065%=      5-min Rain = 0
KAM1 130355Z 12004KT 15/09 A3023 RMK A01 T01540090  RH  066%=      5-min Rain = 0
KAM1 130356Z 12005KT 15/09 A3023 RMK A01 T01540091  RH  066%=      5-min Rain = 0
KAM1 130357Z 12005KT 15/09 A3023 RMK A01 T01540091  RH  066%=      5-min Rain = 0
KAM1 130358Z 13005KT 15/09 A3023 RMK A01 T01540091  RH  066%=      5-min Rain = 0
KAM1 130359Z 13004KT 15/09 A3023 RMK A01 T01540091  RH  066%=      5-min Rain = 0
KAM1 130400Z 14003KT 15/09 A3023 RMK A01 T01530089  RH  066%=      5-min Rain = 0
KAM1 130401Z 14004KT 15/09 A3023 RMK A01 T01510089  RH  066%=      5-min Rain = 0
KAM1 130402Z 14004KT 15/09 A3023 RMK A01 T01510089  RH  066%=      5-min Rain = 0
KAM1 130403Z 13004KT 15/09 A3023 RMK A01 T01510089  RH  067%=      5-min Rain = 0
KAM1 130404Z 13005KT 15/09 A3023 RMK A01 T01510090  RH  067%=      5-min Rain = 0
KAM1 130405Z 13005KT 15/09 A3023 RMK A01 T01510089  RH  066%=      5-min Rain = 0
KAM1 130406Z 13005KT 15/09 A3024 RMK A01 T01500089  RH  067%=      5-min Rain = 0
KAM1 130407Z 13005KT 15/09 A3024 RMK A01 T01490089  RH  067%=      5-min Rain = 0
KAM1 130408Z 13005KT 15/09 A3024 RMK A01 T01490089  RH  067%=      5-min Rain = 0
KAM1 130409Z 13004KT 15/09 A3024 RMK A01 T01480089  RH  067%=      5-min Rain = 0
KAM1 130410Z 13004KT 15/09 A3024 RMK A01 T01480089  RH  068%=      5-min Rain = 0
KAM1 130411Z 13004KT 15/09 A3024 RMK A01 T01490089  RH  068%=      5-min Rain = 0
KAM1 130412Z 13004KT 15/09 A3024 RMK A01 T01480089  RH  068%=      5-min Rain = 0
KAM1 130413Z 13004KT 15/09 A3024 RMK A01 T01480089  RH  068%=      5-min Rain = 0
KAM1 130414Z 12004KT 15/09 A3024 RMK A01 T01480090  RH  068%=      5-min Rain = 0
KAM1 130415Z 12004KT 15/09 A3024 RMK A01 T01490090  RH  068%=      5-min Rain = 0
KAM1 130416Z 12004KT 15/09 A3024 RMK A01 T01490090  RH  068%=      5-min Rain = 0
KAM1 130417Z 12004KT 15/09 A3024 RMK A01 T01490090  RH  068%=      5-min Rain = 0
KAM1 130418Z 12004KT 15/09 A3024 RMK A01 T01490090  RH  068%=      5-min Rain = 0
KAM1 130419Z 12005KT 15/09 A3024 RMK A01 T01490090  RH  068%=      5-min Rain = 0
KAM1 130420Z 12004KT 15/09 A3024 RMK A01 T01490089  RH  068%=      5-min Rain = 0
KAM1 130421Z 12004KT 15/09 A3024 RMK A01 T01490089  RH  067%=      5-min Rain = 0
KAM1 130422Z 12004KT 15/09 A3024 RMK A01 T01490089  RH  067%=      5-min Rain = 0
KAM1 130423Z 12004KT 15/09 A3024 RMK A01 T01510089  RH  067%=      5-min Rain = 0
KAM1 130424Z 12005KT 15/09 A3024 RMK A01 T01520089  RH  066%=      5-min Rain = 0
KAM1 130425Z 12005KT 15/09 A3024 RMK A01 T01530089  RH  066%=      5-min Rain = 0
KAM1 130426Z 11005KT 15/09 A3024 RMK A01 T01540089  RH  065%=      5-min Rain = 0
KAM1 130427Z 11005KT 15/09 A3024 RMK A01 T01540089  RH  065%=      5-min Rain = 0
KAM1 130428Z 12005KT 15/09 A3024 RMK A01 T01540089  RH  065%=      5-min Rain = 0
KAM1 130429Z 12005KT 15/09 A3024 RMK A01 T01520088  RH  065%=      5-min Rain = 0
KAM1 130430Z 12005KT 15/09 A3024 RMK A01 T01510088  RH  066%=      5-min Rain = 0
KAM1 130431Z 12006KT 15/09 A3024 RMK A01 T01500088  RH  066%=      5-min Rain = 0
KAM1 130432Z 12006KT 15/09 A3024 RMK A01 T01490088  RH  067%=      5-min Rain = 0
KAM1 130433Z 12006KT 15/09 A3024 RMK A01 T01480088  RH  067%=      5-min Rain = 0
KAM1 130434Z 12006KT 15/09 A3024 RMK A01 T01470088  RH  068%=      5-min Rain = 0
KAM1 130435Z 12006KT 15/09 A3024 RMK A01 T01460088  RH  068%=      5-min Rain = 0
KAM1 130436Z 12006KT 15/09 A3024 RMK A01 T01460088  RH  069%=      5-min Rain = 0
KAM1 130437Z 11006KT 14/09 A3024 RMK A01 T01440089  RH  069%=      5-min Rain = 0
KAM1 130438Z 11006KT 14/09 A3024 RMK A01 T01430090  RH  070%=      5-min Rain = 0
KAM1 130439Z 11006KT 14/09 A3024 RMK A01 T01420092  RH  071%=      5-min Rain = 0
KAM1 130440Z 11005KT 14/09 A3024 RMK A01 T01410092  RH  072%=      5-min Rain = 0
KAM1 130441Z 11005KT 14/09 A3024 RMK A01 T01410093  RH  073%=      5-min Rain = 0
KAM1 130442Z 11005KT 14/09 A3024 RMK A01 T01400093  RH  073%=      5-min Rain = 0
KAM1 130443Z 11005KT 14/09 A3024 RMK A01 T01390093  RH  073%=      5-min Rain = 0
KAM1 130444Z 11005KT 14/09 A3024 RMK A01 T01390092  RH  074%=      5-min Rain = 0
KAM1 130445Z 10005KT 14/09 A3024 RMK A01 T01380093  RH  074%=      5-min Rain = 0
KAM1 130446Z 10006KT 14/09 A3024 RMK A01 T01380093  RH  074%=      5-min Rain = 0
KAM1 130447Z 10006KT 14/09 A3024 RMK A01 T01380093  RH  074%=      5-min Rain = 0
KAM1 130448Z 10006KT 14/09 A3024 RMK A01 T01380093  RH  074%=      5-min Rain = 0
KAM1 130449Z 10006KT 14/09 A3024 RMK A01 T01380092  RH  074%=      5-min Rain = 0
KAM1 130450Z 10006KT 14/09 A3024 RMK A01 T01380092  RH  074%=      5-min Rain = 0
KAM1 130451Z 11006KT 14/09 A3024 RMK A01 T01380092  RH  074%=      5-min Rain = 0
KAM1 130452Z 11006KT 14/09 A3024 RMK A01 T01380092  RH  074%=      5-min Rain = 0
KAM1 130453Z 11006KT 14/09 A3024 RMK A01 T01380091  RH  074%=      5-min Rain = 0
KAM1 130454Z 11007KT 14/09 A3024 RMK A01 T01370091  RH  074%=      5-min Rain = 0
KAM1 130455Z 11007KT 14/09 A3024 RMK A01 T01380091  RH  073%=      5-min Rain = 0
KAM1 130456Z 11006KT 14/09 A3024 RMK A01 T01370091  RH  073%=      5-min Rain = 0
KAM1 130457Z 12006KT 14/09 A3024 RMK A01 T01380091  RH  073%=      5-min Rain = 0
KAM1 130458Z 12006KT 14/09 A3024 RMK A01 T01370091  RH  073%=      5-min Rain = 0
KAM1 130459Z 11006KT 14/09 A3024 RMK A01 T01370091  RH  074%=      5-min Rain = 0

Page generated in 0.1474 seconds.